﻿<?xml version="1.0" encoding="UTF-8"?>
<gpx xmlns="http://www.topografix.com/GPX/1/1" version="1.1">
<metadata>
<time>2012-02-16T10:41:01Z</time></metadata>
<trk>
<name><![CDATA[Klaus_Schroter2012/02/16_10:02]]></name>
<trkseg>
<trkpt lat="52.547449419" lon="13.506161594">
<ele>89.284882</ele>
<time>2012-02-16T09:02:10Z</time>
</trkpt>
<trkpt lat="52.547517364" lon="13.506188714">
<ele>98.939377</ele>
<time>2012-02-16T09:02:16Z</time>
</trkpt>
<trkpt lat="52.547464265" lon="13.506237345">
<ele>94.852699</ele>
<time>2012-02-16T09:02:21Z</time>
</trkpt>
<trkpt lat="52.547431443" lon="13.506266772">
<ele>94.147430</ele>
<time>2012-02-16T09:02:26Z</time>
</trkpt>
<trkpt lat="52.547447890" lon="13.506286245">
<ele>95.832581</ele>
<time>2012-02-16T09:02:31Z</time>
</trkpt>
<trkpt lat="52.547441587" lon="13.506316803">
<ele>96.826950</ele>
<time>2012-02-16T09:02:36Z</time>
</trkpt>
<trkpt lat="52.547484099" lon="13.506348723">
<ele>98.057655</ele>
<time>2012-02-16T09:02:41Z</time>
</trkpt>
<trkpt lat="52.547531235" lon="13.506362348">
<ele>98.230545</ele>
<time>2012-02-16T09:02:46Z</time>
</trkpt>
<trkpt lat="52.547586633" lon="13.506420240">
<ele>98.111298</ele>
<time>2012-02-16T09:02:51Z</time>
</trkpt>
<trkpt lat="52.547647091" lon="13.506483365">
<ele>99.684120</ele>
<time>2012-02-16T09:02:56Z</time>
</trkpt>
<trkpt lat="52.547692574" lon="13.506535341">
<ele>100.457314</ele>
<time>2012-02-16T09:03:01Z</time>
</trkpt>
<trkpt lat="52.548056959" lon="13.506522114">
<ele>125.002434</ele>
<time>2012-02-16T09:03:06Z</time>
</trkpt>
<trkpt lat="52.548166357" lon="13.506398049">
<ele>124.053902</ele>
<time>2012-02-16T09:03:11Z</time>
</trkpt>
<trkpt lat="52.548190463" lon="13.506313261">
<ele>119.591469</ele>
<time>2012-02-16T09:03:16Z</time>
</trkpt>
<trkpt lat="52.548216765" lon="13.506292519">
<ele>117.767494</ele>
<time>2012-02-16T09:03:21Z</time>
</trkpt>
<trkpt lat="52.548229134" lon="13.506261070">
<ele>115.933754</ele>
<time>2012-02-16T09:03:26Z</time>
</trkpt>
<trkpt lat="52.548273098" lon="13.506273189">
<ele>115.991447</ele>
<time>2012-02-16T09:03:31Z</time>
</trkpt>
<trkpt lat="52.548319864" lon="13.506265934">
<ele>114.434052</ele>
<time>2012-02-16T09:03:36Z</time>
</trkpt>
<trkpt lat="52.548362901" lon="13.506219806">
<ele>113.646599</ele>
<time>2012-02-16T09:03:41Z</time>
</trkpt>
<trkpt lat="52.548366433" lon="13.506143531">
<ele>113.200066</ele>
<time>2012-02-16T09:03:46Z</time>
</trkpt>
<trkpt lat="52.548374271" lon="13.506054735">
<ele>111.629044</ele>
<time>2012-02-16T09:03:51Z</time>
</trkpt>
<trkpt lat="52.548399728" lon="13.505872290">
<ele>100.665482</ele>
<time>2012-02-16T09:03:56Z</time>
</trkpt>
<trkpt lat="52.548407046" lon="13.505762027">
<ele>96.804245</ele>
<time>2012-02-16T09:04:01Z</time>
</trkpt>
<trkpt lat="52.548409774" lon="13.505679974">
<ele>94.949745</ele>
<time>2012-02-16T09:04:06Z</time>
</trkpt>
<trkpt lat="52.548410332" lon="13.505603849">
<ele>94.232544</ele>
<time>2012-02-16T09:04:11Z</time>
</trkpt>
<trkpt lat="52.548420937" lon="13.505531581">
<ele>94.370987</ele>
<time>2012-02-16T09:04:16Z</time>
</trkpt>
<trkpt lat="52.548432686" lon="13.505480797">
<ele>94.024635</ele>
<time>2012-02-16T09:04:21Z</time>
</trkpt>
<trkpt lat="52.548463218" lon="13.505486200">
<ele>93.736130</ele>
<time>2012-02-16T09:04:26Z</time>
</trkpt>
<trkpt lat="52.548492811" lon="13.505476491">
<ele>94.479561</ele>
<time>2012-02-16T09:04:31Z</time>
</trkpt>
<trkpt lat="52.548525207" lon="13.505467989">
<ele>94.555603</ele>
<time>2012-02-16T09:04:36Z</time>
</trkpt>
<trkpt lat="52.548560961" lon="13.505462552">
<ele>94.895432</ele>
<time>2012-02-16T09:04:41Z</time>
</trkpt>
<trkpt lat="52.548603289" lon="13.505447410">
<ele>95.261139</ele>
<time>2012-02-16T09:04:46Z</time>
</trkpt>
<trkpt lat="52.548650965" lon="13.505418950">
<ele>97.089722</ele>
<time>2012-02-16T09:04:51Z</time>
</trkpt>
<trkpt lat="52.548684277" lon="13.505406667">
<ele>96.766632</ele>
<time>2012-02-16T09:04:56Z</time>
</trkpt>
<trkpt lat="52.548720743" lon="13.505392703">
<ele>96.737976</ele>
<time>2012-02-16T09:05:01Z</time>
</trkpt>
<trkpt lat="52.548766336" lon="13.505377869">
<ele>95.537262</ele>
<time>2012-02-16T09:05:06Z</time>
</trkpt>
<trkpt lat="52.548812394" lon="13.505358668">
<ele>95.061958</ele>
<time>2012-02-16T09:05:11Z</time>
</trkpt>
<trkpt lat="52.548841824" lon="13.505351882">
<ele>93.890579</ele>
<time>2012-02-16T09:05:16Z</time>
</trkpt>
<trkpt lat="52.548876638" lon="13.505362519">
<ele>93.443184</ele>
<time>2012-02-16T09:05:21Z</time>
</trkpt>
<trkpt lat="52.548916944" lon="13.505355761">
<ele>92.965546</ele>
<time>2012-02-16T09:05:26Z</time>
</trkpt>
<trkpt lat="52.548943452" lon="13.505314112">
<ele>92.138962</ele>
<time>2012-02-16T09:05:31Z</time>
</trkpt>
<trkpt lat="52.548945611" lon="13.505267266">
<ele>91.767982</ele>
<time>2012-02-16T09:05:36Z</time>
</trkpt>
<trkpt lat="52.548942589" lon="13.505206273">
<ele>91.370064</ele>
<time>2012-02-16T09:05:41Z</time>
</trkpt>
<trkpt lat="52.548958481" lon="13.505128096">
<ele>90.367683</ele>
<time>2012-02-16T09:05:46Z</time>
</trkpt>
<trkpt lat="52.548964596" lon="13.505059287">
<ele>90.088112</ele>
<time>2012-02-16T09:05:51Z</time>
</trkpt>
<trkpt lat="52.548976510" lon="13.504989606">
<ele>89.417900</ele>
<time>2012-02-16T09:05:56Z</time>
</trkpt>
<trkpt lat="52.548981489" lon="13.504912378">
<ele>89.653748</ele>
<time>2012-02-16T09:06:01Z</time>
</trkpt>
<trkpt lat="52.548978126" lon="13.504840778">
<ele>89.564232</ele>
<time>2012-02-16T09:06:06Z</time>
</trkpt>
<trkpt lat="52.548977487" lon="13.504760722">
<ele>89.510971</ele>
<time>2012-02-16T09:06:11Z</time>
</trkpt>
<trkpt lat="52.548984571" lon="13.504687308">
<ele>89.991051</ele>
<time>2012-02-16T09:06:16Z</time>
</trkpt>
<trkpt lat="52.548986396" lon="13.504615386">
<ele>90.161835</ele>
<time>2012-02-16T09:06:21Z</time>
</trkpt>
<trkpt lat="52.548964995" lon="13.504567812">
<ele>89.955719</ele>
<time>2012-02-16T09:06:26Z</time>
</trkpt>
<trkpt lat="52.548946630" lon="13.504494984">
<ele>90.262108</ele>
<time>2012-02-16T09:06:31Z</time>
</trkpt>
<trkpt lat="52.548943658" lon="13.504419651">
<ele>90.615891</ele>
<time>2012-02-16T09:06:36Z</time>
</trkpt>
<trkpt lat="52.548953014" lon="13.504335499">
<ele>91.303818</ele>
<time>2012-02-16T09:06:41Z</time>
</trkpt>
<trkpt lat="52.548945540" lon="13.504269345">
<ele>91.276405</ele>
<time>2012-02-16T09:06:46Z</time>
</trkpt>
<trkpt lat="52.548939895" lon="13.504193276">
<ele>91.694145</ele>
<time>2012-02-16T09:06:51Z</time>
</trkpt>
<trkpt lat="52.548939847" lon="13.504112155">
<ele>92.063225</ele>
<time>2012-02-16T09:06:56Z</time>
</trkpt>
<trkpt lat="52.548941319" lon="13.504042748">
<ele>92.122368</ele>
<time>2012-02-16T09:07:01Z</time>
</trkpt>
<trkpt lat="52.548946842" lon="13.503965382">
<ele>92.167076</ele>
<time>2012-02-16T09:07:06Z</time>
</trkpt>
<trkpt lat="52.548947209" lon="13.503888049">
<ele>92.058563</ele>
<time>2012-02-16T09:07:11Z</time>
</trkpt>
<trkpt lat="52.548942946" lon="13.503820578">
<ele>92.549232</ele>
<time>2012-02-16T09:07:16Z</time>
</trkpt>
<trkpt lat="52.548942255" lon="13.503755048">
<ele>91.991936</ele>
<time>2012-02-16T09:07:21Z</time>
</trkpt>
<trkpt lat="52.548941527" lon="13.503686088">
<ele>92.486298</ele>
<time>2012-02-16T09:07:26Z</time>
</trkpt>
<trkpt lat="52.548943455" lon="13.503611164">
<ele>92.037338</ele>
<time>2012-02-16T09:07:31Z</time>
</trkpt>
<trkpt lat="52.548932622" lon="13.503536309">
<ele>92.902870</ele>
<time>2012-02-16T09:07:36Z</time>
</trkpt>
<trkpt lat="52.548928980" lon="13.503463812">
<ele>92.807999</ele>
<time>2012-02-16T09:07:41Z</time>
</trkpt>
<trkpt lat="52.548917436" lon="13.503382069">
<ele>93.645111</ele>
<time>2012-02-16T09:07:46Z</time>
</trkpt>
<trkpt lat="52.548921346" lon="13.503305530">
<ele>93.846764</ele>
<time>2012-02-16T09:07:51Z</time>
</trkpt>
<trkpt lat="52.548932270" lon="13.503234587">
<ele>94.604538</ele>
<time>2012-02-16T09:07:56Z</time>
</trkpt>
<trkpt lat="52.548940237" lon="13.503165781">
<ele>94.774811</ele>
<time>2012-02-16T09:08:01Z</time>
</trkpt>
<trkpt lat="52.548941993" lon="13.503113239">
<ele>94.259468</ele>
<time>2012-02-16T09:08:06Z</time>
</trkpt>
<trkpt lat="52.548941426" lon="13.503057356">
<ele>94.000984</ele>
<time>2012-02-16T09:08:11Z</time>
</trkpt>
<trkpt lat="52.548953643" lon="13.502987034">
<ele>93.987396</ele>
<time>2012-02-16T09:08:16Z</time>
</trkpt>
<trkpt lat="52.548941784" lon="13.502918047">
<ele>95.704865</ele>
<time>2012-02-16T09:08:21Z</time>
</trkpt>
<trkpt lat="52.548959398" lon="13.502821044">
<ele>96.577805</ele>
<time>2012-02-16T09:08:26Z</time>
</trkpt>
<trkpt lat="52.548969869" lon="13.502730952">
<ele>95.972603</ele>
<time>2012-02-16T09:08:31Z</time>
</trkpt>
<trkpt lat="52.548988584" lon="13.502653558">
<ele>94.281059</ele>
<time>2012-02-16T09:08:36Z</time>
</trkpt>
<trkpt lat="52.548996318" lon="13.502567343">
<ele>94.527557</ele>
<time>2012-02-16T09:08:41Z</time>
</trkpt>
<trkpt lat="52.548994690" lon="13.502487685">
<ele>94.583557</ele>
<time>2012-02-16T09:08:46Z</time>
</trkpt>
<trkpt lat="52.548992452" lon="13.502406585">
<ele>95.189362</ele>
<time>2012-02-16T09:08:51Z</time>
</trkpt>
<trkpt lat="52.548993883" lon="13.502345677">
<ele>94.578964</ele>
<time>2012-02-16T09:08:56Z</time>
</trkpt>
<trkpt lat="52.548994660" lon="13.502278751">
<ele>96.414635</ele>
<time>2012-02-16T09:09:01Z</time>
</trkpt>
<trkpt lat="52.548997889" lon="13.502216160">
<ele>96.206985</ele>
<time>2012-02-16T09:09:06Z</time>
</trkpt>
<trkpt lat="52.549013942" lon="13.502137802">
<ele>95.849861</ele>
<time>2012-02-16T09:09:11Z</time>
</trkpt>
<trkpt lat="52.549032351" lon="13.502076988">
<ele>94.000244</ele>
<time>2012-02-16T09:09:16Z</time>
</trkpt>
<trkpt lat="52.549052450" lon="13.502003237">
<ele>92.813629</ele>
<time>2012-02-16T09:09:21Z</time>
</trkpt>
<trkpt lat="52.549077354" lon="13.501924382">
<ele>92.899673</ele>
<time>2012-02-16T09:09:26Z</time>
</trkpt>
<trkpt lat="52.549096267" lon="13.501854911">
<ele>92.616020</ele>
<time>2012-02-16T09:09:31Z</time>
</trkpt>
<trkpt lat="52.549116574" lon="13.501788762">
<ele>92.639320</ele>
<time>2012-02-16T09:09:36Z</time>
</trkpt>
<trkpt lat="52.549137708" lon="13.501728386">
<ele>92.393921</ele>
<time>2012-02-16T09:09:41Z</time>
</trkpt>
<trkpt lat="52.549150726" lon="13.501674335">
<ele>91.600105</ele>
<time>2012-02-16T09:09:46Z</time>
</trkpt>
<trkpt lat="52.549163802" lon="13.501602912">
<ele>91.210083</ele>
<time>2012-02-16T09:09:51Z</time>
</trkpt>
<trkpt lat="52.549175244" lon="13.501512647">
<ele>91.261948</ele>
<time>2012-02-16T09:09:56Z</time>
</trkpt>
<trkpt lat="52.549188503" lon="13.501429537">
<ele>91.698990</ele>
<time>2012-02-16T09:10:01Z</time>
</trkpt>
<trkpt lat="52.549208072" lon="13.501373318">
<ele>92.329964</ele>
<time>2012-02-16T09:10:06Z</time>
</trkpt>
<trkpt lat="52.549221865" lon="13.501294580">
<ele>93.202499</ele>
<time>2012-02-16T09:10:11Z</time>
</trkpt>
<trkpt lat="52.549237893" lon="13.501231672">
<ele>93.076439</ele>
<time>2012-02-16T09:10:16Z</time>
</trkpt>
<trkpt lat="52.549252584" lon="13.501153543">
<ele>93.537727</ele>
<time>2012-02-16T09:10:21Z</time>
</trkpt>
<trkpt lat="52.549260720" lon="13.501088265">
<ele>93.454079</ele>
<time>2012-02-16T09:10:26Z</time>
</trkpt>
<trkpt lat="52.549285021" lon="13.501017233">
<ele>93.408112</ele>
<time>2012-02-16T09:10:31Z</time>
</trkpt>
<trkpt lat="52.549302855" lon="13.500937562">
<ele>93.410385</ele>
<time>2012-02-16T09:10:36Z</time>
</trkpt>
<trkpt lat="52.549308316" lon="13.500903790">
<name><![CDATA[Lat:52.549308, Lon:13.500904, Ele:93.461288]]></name>
<ele>93.461288</ele>
<time>2012-02-16T09:10:38Z</time>
</trkpt>
<trkpt lat="52.549321469" lon="13.500818034">
<ele>94.169273</ele>
<time>2012-02-16T09:10:43Z</time>
</trkpt>
<trkpt lat="52.549333049" lon="13.500724423">
<ele>94.619118</ele>
<time>2012-02-16T09:10:48Z</time>
</trkpt>
<trkpt lat="52.549347278" lon="13.500643246">
<ele>95.898048</ele>
<time>2012-02-16T09:10:53Z</time>
</trkpt>
<trkpt lat="52.549355032" lon="13.500559154">
<ele>96.735039</ele>
<time>2012-02-16T09:10:58Z</time>
</trkpt>
<trkpt lat="52.549353234" lon="13.500525251">
<ele>97.280640</ele>
<time>2012-02-16T09:11:03Z</time>
</trkpt>
<trkpt lat="52.549356812" lon="13.500517680">
<ele>95.995552</ele>
<time>2012-02-16T09:11:08Z</time>
</trkpt>
<trkpt lat="52.549377924" lon="13.500457602">
<ele>95.648849</ele>
<time>2012-02-16T09:11:13Z</time>
</trkpt>
<trkpt lat="52.549394960" lon="13.500414190">
<ele>95.753029</ele>
<time>2012-02-16T09:11:18Z</time>
</trkpt>
<trkpt lat="52.549392906" lon="13.500378081">
<ele>96.056602</ele>
<time>2012-02-16T09:11:23Z</time>
</trkpt>
<trkpt lat="52.549409598" lon="13.500321317">
<ele>96.060188</ele>
<time>2012-02-16T09:11:28Z</time>
</trkpt>
<trkpt lat="52.549425007" lon="13.500261942">
<ele>96.113174</ele>
<time>2012-02-16T09:11:33Z</time>
</trkpt>
<trkpt lat="52.549428915" lon="13.500231590">
<ele>94.699379</ele>
<time>2012-02-16T09:11:38Z</time>
</trkpt>
<trkpt lat="52.549445019" lon="13.500165126">
<ele>95.139320</ele>
<time>2012-02-16T09:11:43Z</time>
</trkpt>
<trkpt lat="52.549455902" lon="13.500111865">
<ele>95.687782</ele>
<time>2012-02-16T09:11:48Z</time>
</trkpt>
<trkpt lat="52.549463717" lon="13.500055177">
<ele>95.710228</ele>
<time>2012-02-16T09:11:53Z</time>
</trkpt>
<trkpt lat="52.549480583" lon="13.500006562">
<ele>95.959198</ele>
<time>2012-02-16T09:11:58Z</time>
</trkpt>
<trkpt lat="52.549495993" lon="13.499947804">
<ele>95.413940</ele>
<time>2012-02-16T09:12:03Z</time>
</trkpt>
<trkpt lat="52.549504854" lon="13.499871005">
<ele>95.476105</ele>
<time>2012-02-16T09:12:08Z</time>
</trkpt>
<trkpt lat="52.549519695" lon="13.499789927">
<ele>95.962463</ele>
<time>2012-02-16T09:12:13Z</time>
</trkpt>
<trkpt lat="52.549542351" lon="13.499709990">
<ele>96.535446</ele>
<time>2012-02-16T09:12:18Z</time>
</trkpt>
<trkpt lat="52.549560783" lon="13.499627167">
<ele>97.086533</ele>
<time>2012-02-16T09:12:23Z</time>
</trkpt>
<trkpt lat="52.549578122" lon="13.499548083">
<ele>97.535843</ele>
<time>2012-02-16T09:12:28Z</time>
</trkpt>
<trkpt lat="52.549587085" lon="13.499448445">
<ele>98.472061</ele>
<time>2012-02-16T09:12:33Z</time>
</trkpt>
<trkpt lat="52.549612236" lon="13.499381090">
<ele>99.164246</ele>
<time>2012-02-16T09:12:38Z</time>
</trkpt>
<trkpt lat="52.549629721" lon="13.499318870">
<ele>99.333847</ele>
<time>2012-02-16T09:12:43Z</time>
</trkpt>
<trkpt lat="52.549657338" lon="13.499241088">
<ele>99.464371</ele>
<time>2012-02-16T09:12:48Z</time>
</trkpt>
<trkpt lat="52.549675115" lon="13.499173559">
<ele>99.186905</ele>
<time>2012-02-16T09:12:53Z</time>
</trkpt>
<trkpt lat="52.549690733" lon="13.499112815">
<ele>98.797073</ele>
<time>2012-02-16T09:12:58Z</time>
</trkpt>
<trkpt lat="52.549702856" lon="13.499052612">
<ele>98.097580</ele>
<time>2012-02-16T09:13:03Z</time>
</trkpt>
<trkpt lat="52.549717024" lon="13.498981570">
<ele>98.575058</ele>
<time>2012-02-16T09:13:08Z</time>
</trkpt>
<trkpt lat="52.549730050" lon="13.498920020">
<ele>97.984856</ele>
<time>2012-02-16T09:13:13Z</time>
</trkpt>
<trkpt lat="52.549745946" lon="13.498868794">
<ele>97.149323</ele>
<time>2012-02-16T09:13:18Z</time>
</trkpt>
<trkpt lat="52.549759520" lon="13.498810534">
<ele>96.590118</ele>
<time>2012-02-16T09:13:23Z</time>
</trkpt>
<trkpt lat="52.549778137" lon="13.498709717">
<ele>98.505356</ele>
<time>2012-02-16T09:13:28Z</time>
</trkpt>
<trkpt lat="52.549787846" lon="13.498662926">
<ele>98.815239</ele>
<time>2012-02-16T09:13:33Z</time>
</trkpt>
<trkpt lat="52.549783475" lon="13.498603026">
<ele>99.027496</ele>
<time>2012-02-16T09:13:38Z</time>
</trkpt>
<trkpt lat="52.549779170" lon="13.498562172">
<ele>98.894730</ele>
<time>2012-02-16T09:13:43Z</time>
</trkpt>
<trkpt lat="52.549785615" lon="13.498513752">
<ele>99.009949</ele>
<time>2012-02-16T09:13:48Z</time>
</trkpt>
<trkpt lat="52.549802112" lon="13.498463335">
<ele>99.071632</ele>
<time>2012-02-16T09:13:53Z</time>
</trkpt>
<trkpt lat="52.549806019" lon="13.498405412">
<ele>97.755676</ele>
<time>2012-02-16T09:13:58Z</time>
</trkpt>
<trkpt lat="52.549840708" lon="13.498331094">
<ele>96.317444</ele>
<time>2012-02-16T09:14:03Z</time>
</trkpt>
<trkpt lat="52.549866670" lon="13.498256372">
<ele>94.783974</ele>
<time>2012-02-16T09:14:08Z</time>
</trkpt>
<trkpt lat="52.549884703" lon="13.498162066">
<ele>95.576019</ele>
<time>2012-02-16T09:14:13Z</time>
</trkpt>
<trkpt lat="52.549905572" lon="13.498083552">
<ele>95.765625</ele>
<time>2012-02-16T09:14:18Z</time>
</trkpt>
<trkpt lat="52.549927548" lon="13.498003465">
<ele>96.046539</ele>
<time>2012-02-16T09:14:23Z</time>
</trkpt>
<trkpt lat="52.549940108" lon="13.497932233">
<ele>95.490662</ele>
<time>2012-02-16T09:14:28Z</time>
</trkpt>
<trkpt lat="52.549956313" lon="13.497861978">
<ele>95.249321</ele>
<time>2012-02-16T09:14:33Z</time>
</trkpt>
<trkpt lat="52.549974837" lon="13.497784273">
<ele>94.989738</ele>
<time>2012-02-16T09:14:38Z</time>
</trkpt>
<trkpt lat="52.550000133" lon="13.497714924">
<ele>93.854027</ele>
<time>2012-02-16T09:14:43Z</time>
</trkpt>
<trkpt lat="52.550027251" lon="13.497639677">
<ele>93.340530</ele>
<time>2012-02-16T09:14:48Z</time>
</trkpt>
<trkpt lat="52.550055281" lon="13.497555439">
<ele>93.628281</ele>
<time>2012-02-16T09:14:53Z</time>
</trkpt>
<trkpt lat="52.550074755" lon="13.497475580">
<ele>93.367836</ele>
<time>2012-02-16T09:14:58Z</time>
</trkpt>
<trkpt lat="52.550095434" lon="13.497423023">
<ele>93.590004</ele>
<time>2012-02-16T09:15:03Z</time>
</trkpt>
<trkpt lat="52.550122153" lon="13.497352290">
<ele>94.244286</ele>
<time>2012-02-16T09:15:08Z</time>
</trkpt>
<trkpt lat="52.550142226" lon="13.497300933">
<ele>93.572205</ele>
<time>2012-02-16T09:15:13Z</time>
</trkpt>
<trkpt lat="52.550159485" lon="13.497234489">
<ele>92.757973</ele>
<time>2012-02-16T09:15:18Z</time>
</trkpt>
<trkpt lat="52.550174452" lon="13.497155710">
<ele>92.066200</ele>
<time>2012-02-16T09:15:23Z</time>
</trkpt>
<trkpt lat="52.550188145" lon="13.497089272">
<ele>90.849663</ele>
<time>2012-02-16T09:15:28Z</time>
</trkpt>
<trkpt lat="52.550201591" lon="13.497014496">
<ele>90.531715</ele>
<time>2012-02-16T09:15:33Z</time>
</trkpt>
<trkpt lat="52.550200940" lon="13.496952738">
<ele>90.734680</ele>
<time>2012-02-16T09:15:38Z</time>
</trkpt>
<trkpt lat="52.550200112" lon="13.496880018">
<ele>91.604599</ele>
<time>2012-02-16T09:15:43Z</time>
</trkpt>
<trkpt lat="52.550215468" lon="13.496803781">
<ele>92.338257</ele>
<time>2012-02-16T09:15:48Z</time>
</trkpt>
<trkpt lat="52.550232390" lon="13.496702770">
<ele>93.106323</ele>
<time>2012-02-16T09:15:53Z</time>
</trkpt>
<trkpt lat="52.550249443" lon="13.496622747">
<ele>94.610107</ele>
<time>2012-02-16T09:15:58Z</time>
</trkpt>
<trkpt lat="52.550285182" lon="13.496519543">
<ele>94.836937</ele>
<time>2012-02-16T09:16:03Z</time>
</trkpt>
<trkpt lat="52.550305294" lon="13.496451396">
<ele>94.915062</ele>
<time>2012-02-16T09:16:08Z</time>
</trkpt>
<trkpt lat="52.550334094" lon="13.496354163">
<ele>95.401024</ele>
<time>2012-02-16T09:16:13Z</time>
</trkpt>
<trkpt lat="52.550339693" lon="13.496274483">
<ele>96.010811</ele>
<time>2012-02-16T09:16:18Z</time>
</trkpt>
<trkpt lat="52.550358852" lon="13.496195949">
<ele>95.731461</ele>
<time>2012-02-16T09:16:23Z</time>
</trkpt>
<trkpt lat="52.550377962" lon="13.496093807">
<ele>96.225449</ele>
<time>2012-02-16T09:16:28Z</time>
</trkpt>
<trkpt lat="52.550389706" lon="13.496007705">
<ele>95.292671</ele>
<time>2012-02-16T09:16:33Z</time>
</trkpt>
<trkpt lat="52.550405377" lon="13.495922898">
<ele>96.109970</ele>
<time>2012-02-16T09:16:38Z</time>
</trkpt>
<trkpt lat="52.550415077" lon="13.495844921">
<ele>96.004829</ele>
<time>2012-02-16T09:16:43Z</time>
</trkpt>
<trkpt lat="52.550427447" lon="13.495777045">
<ele>95.299599</ele>
<time>2012-02-16T09:16:48Z</time>
</trkpt>
<trkpt lat="52.550442954" lon="13.495712522">
<ele>94.715790</ele>
<time>2012-02-16T09:16:53Z</time>
</trkpt>
<trkpt lat="52.550462341" lon="13.495636934">
<ele>94.423225</ele>
<time>2012-02-16T09:16:58Z</time>
</trkpt>
<trkpt lat="52.550476068" lon="13.495568465">
<ele>93.574539</ele>
<time>2012-02-16T09:17:03Z</time>
</trkpt>
<trkpt lat="52.550489915" lon="13.495473643">
<ele>94.781235</ele>
<time>2012-02-16T09:17:08Z</time>
</trkpt>
<trkpt lat="52.550517667" lon="13.495403509">
<ele>94.714806</ele>
<time>2012-02-16T09:17:13Z</time>
</trkpt>
<trkpt lat="52.550532198" lon="13.495332300">
<ele>94.740463</ele>
<time>2012-02-16T09:17:18Z</time>
</trkpt>
<trkpt lat="52.550546611" lon="13.495307506">
<ele>92.963425</ele>
<time>2012-02-16T09:17:23Z</time>
</trkpt>
<trkpt lat="52.550566421" lon="13.495263953">
<ele>91.553726</ele>
<time>2012-02-16T09:17:28Z</time>
</trkpt>
<trkpt lat="52.550586854" lon="13.495191872">
<ele>91.049217</ele>
<time>2012-02-16T09:17:33Z</time>
</trkpt>
<trkpt lat="52.550607783" lon="13.495109684">
<ele>91.261490</ele>
<time>2012-02-16T09:17:38Z</time>
</trkpt>
<trkpt lat="52.550622114" lon="13.495029436">
<ele>90.888489</ele>
<time>2012-02-16T09:17:43Z</time>
</trkpt>
<trkpt lat="52.550647341" lon="13.494975468">
<ele>89.640228</ele>
<time>2012-02-16T09:17:48Z</time>
</trkpt>
<trkpt lat="52.550662906" lon="13.494915784">
<ele>88.644371</ele>
<time>2012-02-16T09:17:53Z</time>
</trkpt>
<trkpt lat="52.550677216" lon="13.494861838">
<ele>87.846664</ele>
<time>2012-02-16T09:17:58Z</time>
</trkpt>
<trkpt lat="52.550696445" lon="13.494779508">
<ele>88.009315</ele>
<time>2012-02-16T09:18:03Z</time>
</trkpt>
<trkpt lat="52.550719366" lon="13.494718562">
<ele>88.776634</ele>
<time>2012-02-16T09:18:08Z</time>
</trkpt>
<trkpt lat="52.550724419" lon="13.494695734">
<ele>89.067368</ele>
<time>2012-02-16T09:18:13Z</time>
</trkpt>
<trkpt lat="52.550728209" lon="13.494600162">
<ele>89.541321</ele>
<time>2012-02-16T09:18:18Z</time>
</trkpt>
<trkpt lat="52.550749940" lon="13.494516716">
<ele>89.830948</ele>
<time>2012-02-16T09:18:23Z</time>
</trkpt>
<trkpt lat="52.550784997" lon="13.494446506">
<ele>90.049728</ele>
<time>2012-02-16T09:18:28Z</time>
</trkpt>
<trkpt lat="52.550806921" lon="13.494393844">
<ele>89.402588</ele>
<time>2012-02-16T09:18:33Z</time>
</trkpt>
<trkpt lat="52.550818907" lon="13.494341016">
<ele>88.431053</ele>
<time>2012-02-16T09:18:38Z</time>
</trkpt>
<trkpt lat="52.550843522" lon="13.494283412">
<ele>87.616348</ele>
<time>2012-02-16T09:18:43Z</time>
</trkpt>
<trkpt lat="52.550852079" lon="13.494204501">
<ele>87.699883</ele>
<time>2012-02-16T09:18:48Z</time>
</trkpt>
<trkpt lat="52.550865207" lon="13.494146313">
<ele>87.254959</ele>
<time>2012-02-16T09:18:53Z</time>
</trkpt>
<trkpt lat="52.550882802" lon="13.494079804">
<ele>87.702980</ele>
<time>2012-02-16T09:18:58Z</time>
</trkpt>
<trkpt lat="52.550910783" lon="13.494006646">
<ele>88.645119</ele>
<time>2012-02-16T09:19:03Z</time>
</trkpt>
<trkpt lat="52.550932464" lon="13.493930854">
<ele>89.539894</ele>
<time>2012-02-16T09:19:08Z</time>
</trkpt>
<trkpt lat="52.550942707" lon="13.493855518">
<ele>90.468201</ele>
<time>2012-02-16T09:19:13Z</time>
</trkpt>
<trkpt lat="52.550965350" lon="13.493815655">
<ele>90.150253</ele>
<time>2012-02-16T09:19:18Z</time>
</trkpt>
<trkpt lat="52.550973556" lon="13.493824579">
<ele>89.182350</ele>
<time>2012-02-16T09:19:23Z</time>
</trkpt>
<trkpt lat="52.550975756" lon="13.493844866">
<ele>89.025581</ele>
<time>2012-02-16T09:19:28Z</time>
</trkpt>
<trkpt lat="52.550973133" lon="13.493843996">
<ele>89.037834</ele>
<time>2012-02-16T09:19:33Z</time>
</trkpt>
<trkpt lat="52.550968856" lon="13.493842222">
<ele>89.042999</ele>
<time>2012-02-16T09:19:38Z</time>
</trkpt>
<trkpt lat="52.550968722" lon="13.493841717">
<ele>89.144501</ele>
<time>2012-02-16T09:19:43Z</time>
</trkpt>
<trkpt lat="52.550967177" lon="13.493841676">
<ele>89.219963</ele>
<time>2012-02-16T09:19:48Z</time>
</trkpt>
<trkpt lat="52.550964822" lon="13.493841718">
<ele>89.212158</ele>
<time>2012-02-16T09:19:53Z</time>
</trkpt>
<trkpt lat="52.550950251" lon="13.493758818">
<ele>89.840019</ele>
<time>2012-02-16T09:19:58Z</time>
</trkpt>
<trkpt lat="52.550951046" lon="13.493679054">
<ele>88.662682</ele>
<time>2012-02-16T09:20:03Z</time>
</trkpt>
<trkpt lat="52.550965102" lon="13.493609824">
<ele>88.258003</ele>
<time>2012-02-16T09:20:08Z</time>
</trkpt>
<trkpt lat="52.550989677" lon="13.493542281">
<ele>88.787476</ele>
<time>2012-02-16T09:20:13Z</time>
</trkpt>
<trkpt lat="52.551009014" lon="13.493475714">
<ele>89.177895</ele>
<time>2012-02-16T09:20:18Z</time>
</trkpt>
<trkpt lat="52.551022271" lon="13.493416596">
<ele>89.322845</ele>
<time>2012-02-16T09:20:23Z</time>
</trkpt>
<trkpt lat="52.551035111" lon="13.493362146">
<ele>89.291641</ele>
<time>2012-02-16T09:20:28Z</time>
</trkpt>
<trkpt lat="52.551047991" lon="13.493288705">
<ele>90.262291</ele>
<time>2012-02-16T09:20:33Z</time>
</trkpt>
<trkpt lat="52.551054668" lon="13.493221625">
<ele>90.086121</ele>
<time>2012-02-16T09:20:38Z</time>
</trkpt>
<trkpt lat="52.551072294" lon="13.493152081">
<ele>91.592430</ele>
<time>2012-02-16T09:20:43Z</time>
</trkpt>
<trkpt lat="52.551093031" lon="13.493072979">
<ele>93.215981</ele>
<time>2012-02-16T09:20:48Z</time>
</trkpt>
<trkpt lat="52.551111117" lon="13.492987898">
<ele>93.182396</ele>
<time>2012-02-16T09:20:53Z</time>
</trkpt>
<trkpt lat="52.551118150" lon="13.492919679">
<ele>94.234329</ele>
<time>2012-02-16T09:20:58Z</time>
</trkpt>
<trkpt lat="52.551127995" lon="13.492851216">
<ele>93.862411</ele>
<time>2012-02-16T09:21:03Z</time>
</trkpt>
<trkpt lat="52.551144681" lon="13.492818682">
<ele>93.405693</ele>
<time>2012-02-16T09:21:08Z</time>
</trkpt>
<trkpt lat="52.551139242" lon="13.492743734">
<ele>92.861649</ele>
<time>2012-02-16T09:21:13Z</time>
</trkpt>
<trkpt lat="52.551157866" lon="13.492683172">
<ele>93.288322</ele>
<time>2012-02-16T09:21:18Z</time>
</trkpt>
<trkpt lat="52.551180750" lon="13.492607992">
<ele>93.137871</ele>
<time>2012-02-16T09:21:23Z</time>
</trkpt>
<trkpt lat="52.551203441" lon="13.492533912">
<ele>91.979042</ele>
<time>2012-02-16T09:21:28Z</time>
</trkpt>
<trkpt lat="52.551216443" lon="13.492463084">
<ele>92.827545</ele>
<time>2012-02-16T09:21:33Z</time>
</trkpt>
<trkpt lat="52.551228656" lon="13.492404469">
<ele>93.151344</ele>
<time>2012-02-16T09:21:38Z</time>
</trkpt>
<trkpt lat="52.551264143" lon="13.492340595">
<ele>93.200569</ele>
<time>2012-02-16T09:21:43Z</time>
</trkpt>
<trkpt lat="52.551284712" lon="13.492261582">
<ele>93.172287</ele>
<time>2012-02-16T09:21:48Z</time>
</trkpt>
<trkpt lat="52.551310121" lon="13.492191666">
<ele>92.805550</ele>
<time>2012-02-16T09:21:53Z</time>
</trkpt>
<trkpt lat="52.551336641" lon="13.492127337">
<ele>93.191772</ele>
<time>2012-02-16T09:21:58Z</time>
</trkpt>
<trkpt lat="52.551337435" lon="13.492073162">
<ele>94.194260</ele>
<time>2012-02-16T09:22:03Z</time>
</trkpt>
<trkpt lat="52.551349935" lon="13.492002893">
<ele>94.423859</ele>
<time>2012-02-16T09:22:08Z</time>
</trkpt>
<trkpt lat="52.551375150" lon="13.491925990">
<ele>94.662407</ele>
<time>2012-02-16T09:22:13Z</time>
</trkpt>
<trkpt lat="52.551391436" lon="13.491849178">
<ele>94.212975</ele>
<time>2012-02-16T09:22:18Z</time>
</trkpt>
<trkpt lat="52.551408216" lon="13.491773742">
<ele>93.764214</ele>
<time>2012-02-16T09:22:23Z</time>
</trkpt>
<trkpt lat="52.551416248" lon="13.491724295">
<ele>93.191414</ele>
<time>2012-02-16T09:22:28Z</time>
</trkpt>
<trkpt lat="52.551437436" lon="13.491664385">
<ele>92.270126</ele>
<time>2012-02-16T09:22:33Z</time>
</trkpt>
<trkpt lat="52.551451019" lon="13.491576057">
<ele>92.421921</ele>
<time>2012-02-16T09:22:38Z</time>
</trkpt>
<trkpt lat="52.551436908" lon="13.491579743">
<ele>92.166100</ele>
<time>2012-02-16T09:22:43Z</time>
</trkpt>
<trkpt lat="52.551442188" lon="13.491556042">
<ele>92.247238</ele>
<time>2012-02-16T09:22:48Z</time>
</trkpt>
<trkpt lat="52.551463266" lon="13.491498554">
<ele>92.267830</ele>
<time>2012-02-16T09:22:53Z</time>
</trkpt>
<trkpt lat="52.551482155" lon="13.491454863">
<ele>90.870445</ele>
<time>2012-02-16T09:22:58Z</time>
</trkpt>
<trkpt lat="52.551498162" lon="13.491389045">
<ele>91.336334</ele>
<time>2012-02-16T09:23:03Z</time>
</trkpt>
<trkpt lat="52.551516702" lon="13.491328785">
<ele>92.780525</ele>
<time>2012-02-16T09:23:08Z</time>
</trkpt>
<trkpt lat="52.551520661" lon="13.491298840">
<ele>92.358452</ele>
<time>2012-02-16T09:23:13Z</time>
</trkpt>
<trkpt lat="52.551516867" lon="13.491258564">
<ele>93.021935</ele>
<time>2012-02-16T09:23:18Z</time>
</trkpt>
<trkpt lat="52.551527539" lon="13.491195202">
<ele>93.241280</ele>
<time>2012-02-16T09:23:23Z</time>
</trkpt>
<trkpt lat="52.551542934" lon="13.491121335">
<ele>92.693207</ele>
<time>2012-02-16T09:23:28Z</time>
</trkpt>
<trkpt lat="52.551548291" lon="13.491060520">
<ele>92.122383</ele>
<time>2012-02-16T09:23:33Z</time>
</trkpt>
<trkpt lat="52.551568131" lon="13.490979687">
<ele>91.040855</ele>
<time>2012-02-16T09:23:38Z</time>
</trkpt>
<trkpt lat="52.551580245" lon="13.490923335">
<ele>91.142509</ele>
<time>2012-02-16T09:23:43Z</time>
</trkpt>
<trkpt lat="52.551588920" lon="13.490849282">
<ele>91.304634</ele>
<time>2012-02-16T09:23:48Z</time>
</trkpt>
<trkpt lat="52.551615210" lon="13.490770555">
<ele>92.077438</ele>
<time>2012-02-16T09:23:53Z</time>
</trkpt>
<trkpt lat="52.551626062" lon="13.490700405">
<ele>92.435020</ele>
<time>2012-02-16T09:23:58Z</time>
</trkpt>
<trkpt lat="52.551651299" lon="13.490626901">
<ele>92.709671</ele>
<time>2012-02-16T09:24:03Z</time>
</trkpt>
<trkpt lat="52.551676041" lon="13.490566918">
<ele>92.597801</ele>
<time>2012-02-16T09:24:08Z</time>
</trkpt>
<trkpt lat="52.551686471" lon="13.490499196">
<ele>92.308258</ele>
<time>2012-02-16T09:24:13Z</time>
</trkpt>
<trkpt lat="52.551715908" lon="13.490405755">
<ele>94.212860</ele>
<time>2012-02-16T09:24:18Z</time>
</trkpt>
<trkpt lat="52.551727376" lon="13.490335963">
<ele>94.453026</ele>
<time>2012-02-16T09:24:23Z</time>
</trkpt>
<trkpt lat="52.551728149" lon="13.490282418">
<ele>94.081688</ele>
<time>2012-02-16T09:24:28Z</time>
</trkpt>
<trkpt lat="52.551746085" lon="13.490213567">
<ele>93.627205</ele>
<time>2012-02-16T09:24:33Z</time>
</trkpt>
<trkpt lat="52.551768442" lon="13.490149143">
<ele>93.642883</ele>
<time>2012-02-16T09:24:38Z</time>
</trkpt>
<trkpt lat="52.551771722" lon="13.490082715">
<ele>93.857941</ele>
<time>2012-02-16T09:24:43Z</time>
</trkpt>
<trkpt lat="52.551780822" lon="13.490019884">
<ele>93.729622</ele>
<time>2012-02-16T09:24:48Z</time>
</trkpt>
<trkpt lat="52.551792994" lon="13.489933818">
<ele>93.459389</ele>
<time>2012-02-16T09:24:53Z</time>
</trkpt>
<trkpt lat="52.551804295" lon="13.489855925">
<ele>94.335167</ele>
<time>2012-02-16T09:24:58Z</time>
</trkpt>
<trkpt lat="52.551803837" lon="13.489782652">
<ele>92.871674</ele>
<time>2012-02-16T09:25:03Z</time>
</trkpt>
<trkpt lat="52.551795533" lon="13.489738695">
<ele>93.279289</ele>
<time>2012-02-16T09:25:08Z</time>
</trkpt>
<trkpt lat="52.551806833" lon="13.489678963">
<ele>93.790466</ele>
<time>2012-02-16T09:25:13Z</time>
</trkpt>
<trkpt lat="52.551824174" lon="13.489595176">
<ele>94.484703</ele>
<time>2012-02-16T09:25:18Z</time>
</trkpt>
<trkpt lat="52.551822856" lon="13.489529823">
<ele>95.269920</ele>
<time>2012-02-16T09:25:23Z</time>
</trkpt>
<trkpt lat="52.551847282" lon="13.489461894">
<ele>96.331688</ele>
<time>2012-02-16T09:25:28Z</time>
</trkpt>
<trkpt lat="52.551881626" lon="13.489395610">
<ele>96.375694</ele>
<time>2012-02-16T09:25:33Z</time>
</trkpt>
<trkpt lat="52.551892932" lon="13.489320652">
<ele>95.440964</ele>
<time>2012-02-16T09:25:38Z</time>
</trkpt>
<trkpt lat="52.551892509" lon="13.489242473">
<ele>95.086098</ele>
<time>2012-02-16T09:25:43Z</time>
</trkpt>
<trkpt lat="52.551906423" lon="13.489185689">
<ele>94.666481</ele>
<time>2012-02-16T09:25:48Z</time>
</trkpt>
<trkpt lat="52.551912108" lon="13.489135744">
<ele>94.468689</ele>
<time>2012-02-16T09:25:53Z</time>
</trkpt>
<trkpt lat="52.551894426" lon="13.489099988">
<ele>94.726578</ele>
<time>2012-02-16T09:25:58Z</time>
</trkpt>
<trkpt lat="52.551896913" lon="13.489035069">
<ele>95.487129</ele>
<time>2012-02-16T09:26:03Z</time>
</trkpt>
<trkpt lat="52.551924304" lon="13.488964242">
<ele>93.793427</ele>
<time>2012-02-16T09:26:08Z</time>
</trkpt>
<trkpt lat="52.551927974" lon="13.488897575">
<ele>93.913780</ele>
<time>2012-02-16T09:26:13Z</time>
</trkpt>
<trkpt lat="52.551930093" lon="13.488822528">
<ele>95.230637</ele>
<time>2012-02-16T09:26:18Z</time>
</trkpt>
<trkpt lat="52.551930974" lon="13.488753814">
<ele>96.838150</ele>
<time>2012-02-16T09:26:23Z</time>
</trkpt>
<trkpt lat="52.551966403" lon="13.488676334">
<ele>96.008949</ele>
<time>2012-02-16T09:26:28Z</time>
</trkpt>
<trkpt lat="52.551984112" lon="13.488592236">
<ele>95.077705</ele>
<time>2012-02-16T09:26:33Z</time>
</trkpt>
<trkpt lat="52.552015767" lon="13.488505655">
<ele>93.703941</ele>
<time>2012-02-16T09:26:38Z</time>
</trkpt>
<trkpt lat="52.552029249" lon="13.488453705">
<ele>93.133812</ele>
<time>2012-02-16T09:26:43Z</time>
</trkpt>
<trkpt lat="52.552045367" lon="13.488375986">
<ele>92.683907</ele>
<time>2012-02-16T09:26:48Z</time>
</trkpt>
<trkpt lat="52.552076140" lon="13.488301100">
<ele>93.839363</ele>
<time>2012-02-16T09:26:53Z</time>
</trkpt>
<trkpt lat="52.552087183" lon="13.488229022">
<ele>93.780891</ele>
<time>2012-02-16T09:26:58Z</time>
</trkpt>
<trkpt lat="52.552089353" lon="13.488162031">
<ele>93.880379</ele>
<time>2012-02-16T09:27:03Z</time>
</trkpt>
<trkpt lat="52.552095662" lon="13.488088727">
<ele>94.176804</ele>
<time>2012-02-16T09:27:08Z</time>
</trkpt>
<trkpt lat="52.552105034" lon="13.488014841">
<ele>93.535454</ele>
<time>2012-02-16T09:27:13Z</time>
</trkpt>
<trkpt lat="52.552096331" lon="13.487959159">
<ele>93.295998</ele>
<time>2012-02-16T09:27:18Z</time>
</trkpt>
<trkpt lat="52.552107681" lon="13.487903174">
<ele>93.608253</ele>
<time>2012-02-16T09:27:23Z</time>
</trkpt>
<trkpt lat="52.552135206" lon="13.487827026">
<ele>93.442383</ele>
<time>2012-02-16T09:27:28Z</time>
</trkpt>
<trkpt lat="52.552152553" lon="13.487781483">
<ele>92.144417</ele>
<time>2012-02-16T09:27:33Z</time>
</trkpt>
<trkpt lat="52.552159341" lon="13.487721515">
<ele>90.199104</ele>
<time>2012-02-16T09:27:38Z</time>
</trkpt>
<trkpt lat="52.552171366" lon="13.487632913">
<ele>90.559326</ele>
<time>2012-02-16T09:27:43Z</time>
</trkpt>
<trkpt lat="52.552181096" lon="13.487558829">
<ele>90.389267</ele>
<time>2012-02-16T09:27:48Z</time>
</trkpt>
<trkpt lat="52.552192699" lon="13.487493030">
<ele>89.326660</ele>
<time>2012-02-16T09:27:53Z</time>
</trkpt>
<trkpt lat="52.552204579" lon="13.487401674">
<ele>88.962654</ele>
<time>2012-02-16T09:27:58Z</time>
</trkpt>
<trkpt lat="52.552209731" lon="13.487321222">
<ele>89.571693</ele>
<time>2012-02-16T09:28:03Z</time>
</trkpt>
<trkpt lat="52.552221524" lon="13.487249334">
<ele>90.322418</ele>
<time>2012-02-16T09:28:08Z</time>
</trkpt>
<trkpt lat="52.552226761" lon="13.487183938">
<ele>90.317192</ele>
<time>2012-02-16T09:28:13Z</time>
</trkpt>
<trkpt lat="52.552247399" lon="13.487100573">
<ele>89.651901</ele>
<time>2012-02-16T09:28:18Z</time>
</trkpt>
<trkpt lat="52.552249582" lon="13.487015311">
<ele>91.672127</ele>
<time>2012-02-16T09:28:23Z</time>
</trkpt>
<trkpt lat="52.552244330" lon="13.486955406">
<ele>93.008453</ele>
<time>2012-02-16T09:28:28Z</time>
</trkpt>
<trkpt lat="52.552190961" lon="13.486911472">
<ele>91.510658</ele>
<time>2012-02-16T09:28:33Z</time>
</trkpt>
<trkpt lat="52.552144315" lon="13.486879302">
<ele>90.593201</ele>
<time>2012-02-16T09:28:38Z</time>
</trkpt>
<trkpt lat="52.552097590" lon="13.486841176">
<ele>90.894127</ele>
<time>2012-02-16T09:28:43Z</time>
</trkpt>
<trkpt lat="52.552058705" lon="13.486800435">
<ele>89.827347</ele>
<time>2012-02-16T09:28:48Z</time>
</trkpt>
<trkpt lat="52.552051505" lon="13.486747266">
<ele>89.274147</ele>
<time>2012-02-16T09:28:53Z</time>
</trkpt>
<trkpt lat="52.552069263" lon="13.486685399">
<ele>88.973587</ele>
<time>2012-02-16T09:28:58Z</time>
</trkpt>
<trkpt lat="52.552081223" lon="13.486595480">
<ele>88.907578</ele>
<time>2012-02-16T09:29:03Z</time>
</trkpt>
<trkpt lat="52.552091138" lon="13.486511300">
<ele>88.714935</ele>
<time>2012-02-16T09:29:08Z</time>
</trkpt>
<trkpt lat="52.552106712" lon="13.486440832">
<ele>88.568024</ele>
<time>2012-02-16T09:29:13Z</time>
</trkpt>
<trkpt lat="52.552130349" lon="13.486378061">
<ele>88.818420</ele>
<time>2012-02-16T09:29:18Z</time>
</trkpt>
<trkpt lat="52.552154300" lon="13.486325664">
<ele>88.805099</ele>
<time>2012-02-16T09:29:23Z</time>
</trkpt>
<trkpt lat="52.552161555" lon="13.486287308">
<ele>89.160835</ele>
<time>2012-02-16T09:29:28Z</time>
</trkpt>
<trkpt lat="52.552178961" lon="13.486206647">
<ele>89.038475</ele>
<time>2012-02-16T09:29:33Z</time>
</trkpt>
<trkpt lat="52.552192945" lon="13.486129010">
<ele>88.820740</ele>
<time>2012-02-16T09:29:38Z</time>
</trkpt>
<trkpt lat="52.552202523" lon="13.486052774">
<ele>89.034012</ele>
<time>2012-02-16T09:29:43Z</time>
</trkpt>
<trkpt lat="52.552211556" lon="13.485973955">
<ele>88.619545</ele>
<time>2012-02-16T09:29:48Z</time>
</trkpt>
<trkpt lat="52.552220915" lon="13.485918158">
<ele>88.956802</ele>
<time>2012-02-16T09:29:53Z</time>
</trkpt>
<trkpt lat="52.552233465" lon="13.485844537">
<ele>88.982124</ele>
<time>2012-02-16T09:29:58Z</time>
</trkpt>
<trkpt lat="52.552234611" lon="13.485769759">
<ele>89.704208</ele>
<time>2012-02-16T09:30:03Z</time>
</trkpt>
<trkpt lat="52.552214331" lon="13.485782585">
<ele>89.623619</ele>
<time>2012-02-16T09:30:08Z</time>
</trkpt>
<trkpt lat="52.552193529" lon="13.485854385">
<ele>89.636230</ele>
<time>2012-02-16T09:30:13Z</time>
</trkpt>
<trkpt lat="52.552171893" lon="13.485930013">
<ele>89.279976</ele>
<time>2012-02-16T09:30:18Z</time>
</trkpt>
<trkpt lat="52.552153661" lon="13.485995508">
<ele>89.583679</ele>
<time>2012-02-16T09:30:23Z</time>
</trkpt>
<trkpt lat="52.552138958" lon="13.486062611">
<ele>89.784271</ele>
<time>2012-02-16T09:30:28Z</time>
</trkpt>
<trkpt lat="52.552125690" lon="13.486129599">
<ele>90.036552</ele>
<time>2012-02-16T09:30:33Z</time>
</trkpt>
<trkpt lat="52.552118002" lon="13.486192632">
<ele>90.428955</ele>
<time>2012-02-16T09:30:38Z</time>
</trkpt>
<trkpt lat="52.552104329" lon="13.486255118">
<ele>90.679192</ele>
<time>2012-02-16T09:30:43Z</time>
</trkpt>
<trkpt lat="52.552092329" lon="13.486320581">
<ele>90.610809</ele>
<time>2012-02-16T09:30:48Z</time>
</trkpt>
<trkpt lat="52.552065215" lon="13.486372403">
<ele>90.801056</ele>
<time>2012-02-16T09:30:53Z</time>
</trkpt>
<trkpt lat="52.552024390" lon="13.486397129">
<ele>91.408882</ele>
<time>2012-02-16T09:30:58Z</time>
</trkpt>
<trkpt lat="52.551988480" lon="13.486428034">
<ele>91.584747</ele>
<time>2012-02-16T09:31:03Z</time>
</trkpt>
<trkpt lat="52.551958587" lon="13.486464320">
<ele>91.465614</ele>
<time>2012-02-16T09:31:08Z</time>
</trkpt>
<trkpt lat="52.551935459" lon="13.486491206">
<ele>90.755211</ele>
<time>2012-02-16T09:31:13Z</time>
</trkpt>
<trkpt lat="52.551905893" lon="13.486516022">
<ele>89.894501</ele>
<time>2012-02-16T09:31:18Z</time>
</trkpt>
<trkpt lat="52.551868890" lon="13.486534006">
<ele>90.795479</ele>
<time>2012-02-16T09:31:23Z</time>
</trkpt>
<trkpt lat="52.551828655" lon="13.486520777">
<ele>91.190514</ele>
<time>2012-02-16T09:31:28Z</time>
</trkpt>
<trkpt lat="52.551783585" lon="13.486503491">
<ele>91.256058</ele>
<time>2012-02-16T09:31:33Z</time>
</trkpt>
<trkpt lat="52.551739047" lon="13.486472737">
<ele>91.502571</ele>
<time>2012-02-16T09:31:38Z</time>
</trkpt>
<trkpt lat="52.551720950" lon="13.486454904">
<ele>90.417953</ele>
<time>2012-02-16T09:31:43Z</time>
</trkpt>
<trkpt lat="52.551680330" lon="13.486432298">
<ele>90.196442</ele>
<time>2012-02-16T09:31:48Z</time>
</trkpt>
<trkpt lat="52.551632612" lon="13.486411012">
<ele>90.170799</ele>
<time>2012-02-16T09:31:53Z</time>
</trkpt>
<trkpt lat="52.551599387" lon="13.486404939">
<ele>89.120789</ele>
<time>2012-02-16T09:31:58Z</time>
</trkpt>
<trkpt lat="52.551561560" lon="13.486387043">
<ele>88.132607</ele>
<time>2012-02-16T09:32:03Z</time>
</trkpt>
<trkpt lat="52.551525150" lon="13.486371846">
<ele>87.634171</ele>
<time>2012-02-16T09:32:08Z</time>
</trkpt>
<trkpt lat="52.551492780" lon="13.486361699">
<ele>86.774788</ele>
<time>2012-02-16T09:32:13Z</time>
</trkpt>
<trkpt lat="52.551450661" lon="13.486346301">
<ele>86.381760</ele>
<time>2012-02-16T09:32:18Z</time>
</trkpt>
<trkpt lat="52.551405128" lon="13.486307842">
<ele>86.886391</ele>
<time>2012-02-16T09:32:23Z</time>
</trkpt>
<trkpt lat="52.551363040" lon="13.486279240">
<ele>87.267082</ele>
<time>2012-02-16T09:32:28Z</time>
</trkpt>
<trkpt lat="52.551333529" lon="13.486266719">
<ele>87.119690</ele>
<time>2012-02-16T09:32:33Z</time>
</trkpt>
<trkpt lat="52.551299308" lon="13.486270688">
<ele>87.234886</ele>
<time>2012-02-16T09:32:38Z</time>
</trkpt>
<trkpt lat="52.551265473" lon="13.486252970">
<ele>86.712646</ele>
<time>2012-02-16T09:32:43Z</time>
</trkpt>
<trkpt lat="52.551223814" lon="13.486242777">
<ele>86.526062</ele>
<time>2012-02-16T09:32:48Z</time>
</trkpt>
<trkpt lat="52.551176200" lon="13.486229184">
<ele>85.801682</ele>
<time>2012-02-16T09:32:53Z</time>
</trkpt>
<trkpt lat="52.551132045" lon="13.486202378">
<ele>86.437012</ele>
<time>2012-02-16T09:32:58Z</time>
</trkpt>
<trkpt lat="52.551086436" lon="13.486187135">
<ele>87.476700</ele>
<time>2012-02-16T09:33:03Z</time>
</trkpt>
<trkpt lat="52.551032017" lon="13.486172354">
<ele>88.544113</ele>
<time>2012-02-16T09:33:08Z</time>
</trkpt>
<trkpt lat="52.550998721" lon="13.486163589">
<ele>88.700455</ele>
<time>2012-02-16T09:33:13Z</time>
</trkpt>
<trkpt lat="52.550955192" lon="13.486149733">
<ele>89.850479</ele>
<time>2012-02-16T09:33:18Z</time>
</trkpt>
<trkpt lat="52.550911138" lon="13.486139614">
<ele>90.443016</ele>
<time>2012-02-16T09:33:23Z</time>
</trkpt>
<trkpt lat="52.550874595" lon="13.486127901">
<ele>92.073395</ele>
<time>2012-02-16T09:33:28Z</time>
</trkpt>
<trkpt lat="52.550828829" lon="13.486117227">
<ele>91.760414</ele>
<time>2012-02-16T09:33:33Z</time>
</trkpt>
<trkpt lat="52.550779832" lon="13.486094047">
<ele>91.814796</ele>
<time>2012-02-16T09:33:38Z</time>
</trkpt>
<trkpt lat="52.550741494" lon="13.486082554">
<ele>91.738815</ele>
<time>2012-02-16T09:33:43Z</time>
</trkpt>
<trkpt lat="52.550708429" lon="13.486058580">
<ele>91.702164</ele>
<time>2012-02-16T09:33:48Z</time>
</trkpt>
<trkpt lat="52.550677094" lon="13.486037855">
<ele>91.267029</ele>
<time>2012-02-16T09:33:53Z</time>
</trkpt>
<trkpt lat="52.550641723" lon="13.486031010">
<ele>90.943748</ele>
<time>2012-02-16T09:33:58Z</time>
</trkpt>
<trkpt lat="52.550615882" lon="13.486027665">
<ele>90.602921</ele>
<time>2012-02-16T09:34:03Z</time>
</trkpt>
<trkpt lat="52.550580749" lon="13.486015454">
<ele>89.922668</ele>
<time>2012-02-16T09:34:08Z</time>
</trkpt>
<trkpt lat="52.550541933" lon="13.486009367">
<ele>89.659004</ele>
<time>2012-02-16T09:34:13Z</time>
</trkpt>
<trkpt lat="52.550502245" lon="13.486012525">
<ele>89.290176</ele>
<time>2012-02-16T09:34:18Z</time>
</trkpt>
<trkpt lat="52.550456753" lon="13.486012417">
<ele>88.921967</ele>
<time>2012-02-16T09:34:23Z</time>
</trkpt>
<trkpt lat="52.550421442" lon="13.486020277">
<ele>88.188492</ele>
<time>2012-02-16T09:34:28Z</time>
</trkpt>
<trkpt lat="52.550393070" lon="13.486031109">
<ele>89.568306</ele>
<time>2012-02-16T09:34:33Z</time>
</trkpt>
<trkpt lat="52.550359721" lon="13.486046421">
<ele>90.623970</ele>
<time>2012-02-16T09:34:38Z</time>
</trkpt>
<trkpt lat="52.550324206" lon="13.486043485">
<ele>90.900208</ele>
<time>2012-02-16T09:34:43Z</time>
</trkpt>
<trkpt lat="52.550277182" lon="13.486035162">
<ele>91.493805</ele>
<time>2012-02-16T09:34:48Z</time>
</trkpt>
<trkpt lat="52.550233595" lon="13.486002867">
<ele>91.411499</ele>
<time>2012-02-16T09:34:53Z</time>
</trkpt>
<trkpt lat="52.550177605" lon="13.485945802">
<ele>92.343033</ele>
<time>2012-02-16T09:34:58Z</time>
</trkpt>
<trkpt lat="52.550132234" lon="13.485939671">
<ele>93.040169</ele>
<time>2012-02-16T09:35:03Z</time>
</trkpt>
<trkpt lat="52.550092313" lon="13.485959594">
<ele>93.455200</ele>
<time>2012-02-16T09:35:08Z</time>
</trkpt>
<trkpt lat="52.550046796" lon="13.485965860">
<ele>92.901184</ele>
<time>2012-02-16T09:35:13Z</time>
</trkpt>
<trkpt lat="52.550004165" lon="13.485966470">
<ele>92.831711</ele>
<time>2012-02-16T09:35:18Z</time>
</trkpt>
<trkpt lat="52.549964244" lon="13.485968470">
<ele>93.172600</ele>
<time>2012-02-16T09:35:23Z</time>
</trkpt>
<trkpt lat="52.549920990" lon="13.485977736">
<ele>94.569450</ele>
<time>2012-02-16T09:35:28Z</time>
</trkpt>
<trkpt lat="52.549875527" lon="13.485970647">
<ele>95.235107</ele>
<time>2012-02-16T09:35:33Z</time>
</trkpt>
<trkpt lat="52.549846341" lon="13.485963285">
<ele>94.933418</ele>
<time>2012-02-16T09:35:38Z</time>
</trkpt>
<trkpt lat="52.549813780" lon="13.485949595">
<ele>94.731384</ele>
<time>2012-02-16T09:35:43Z</time>
</trkpt>
<trkpt lat="52.549775785" lon="13.485944818">
<ele>94.764671</ele>
<time>2012-02-16T09:35:48Z</time>
</trkpt>
<trkpt lat="52.549740389" lon="13.485955975">
<ele>94.498077</ele>
<time>2012-02-16T09:35:53Z</time>
</trkpt>
<trkpt lat="52.549704449" lon="13.485955584">
<ele>94.070580</ele>
<time>2012-02-16T09:35:58Z</time>
</trkpt>
<trkpt lat="52.549667846" lon="13.485967896">
<ele>93.972595</ele>
<time>2012-02-16T09:36:03Z</time>
</trkpt>
<trkpt lat="52.549641815" lon="13.485978277">
<ele>93.324577</ele>
<time>2012-02-16T09:36:08Z</time>
</trkpt>
<trkpt lat="52.549603575" lon="13.485980634">
<ele>93.071671</ele>
<time>2012-02-16T09:36:13Z</time>
</trkpt>
<trkpt lat="52.549559619" lon="13.485965182">
<ele>93.863716</ele>
<time>2012-02-16T09:36:18Z</time>
</trkpt>
<trkpt lat="52.549512797" lon="13.485984607">
<ele>94.614708</ele>
<time>2012-02-16T09:36:23Z</time>
</trkpt>
<trkpt lat="52.549468486" lon="13.486003212">
<ele>95.077721</ele>
<time>2012-02-16T09:36:28Z</time>
</trkpt>
<trkpt lat="52.549429632" lon="13.485972057">
<ele>96.113403</ele>
<time>2012-02-16T09:36:33Z</time>
</trkpt>
<trkpt lat="52.549394897" lon="13.485974857">
<ele>95.738022</ele>
<time>2012-02-16T09:36:38Z</time>
</trkpt>
<trkpt lat="52.549355237" lon="13.485975964">
<ele>95.437599</ele>
<time>2012-02-16T09:36:43Z</time>
</trkpt>
<trkpt lat="52.549314823" lon="13.485991095">
<ele>95.080200</ele>
<time>2012-02-16T09:36:48Z</time>
</trkpt>
<trkpt lat="52.549276678" lon="13.486004761">
<ele>95.152267</ele>
<time>2012-02-16T09:36:53Z</time>
</trkpt>
<trkpt lat="52.549244438" lon="13.486029413">
<ele>95.198563</ele>
<time>2012-02-16T09:36:58Z</time>
</trkpt>
<trkpt lat="52.549211999" lon="13.486055642">
<ele>95.054649</ele>
<time>2012-02-16T09:37:03Z</time>
</trkpt>
<trkpt lat="52.549177981" lon="13.486083008">
<ele>95.392273</ele>
<time>2012-02-16T09:37:08Z</time>
</trkpt>
<trkpt lat="52.549150987" lon="13.486048133">
<ele>95.092705</ele>
<time>2012-02-16T09:37:13Z</time>
</trkpt>
<trkpt lat="52.549127097" lon="13.485985864">
<ele>95.123405</ele>
<time>2012-02-16T09:37:18Z</time>
</trkpt>
<trkpt lat="52.549097466" lon="13.485938500">
<ele>95.010307</ele>
<time>2012-02-16T09:37:23Z</time>
</trkpt>
<trkpt lat="52.549062116" lon="13.485934028">
<ele>95.423393</ele>
<time>2012-02-16T09:37:28Z</time>
</trkpt>
<trkpt lat="52.549024931" lon="13.485949742">
<ele>94.758537</ele>
<time>2012-02-16T09:37:33Z</time>
</trkpt>
<trkpt lat="52.549011481" lon="13.485981523">
<ele>94.737061</ele>
<time>2012-02-16T09:37:38Z</time>
</trkpt>
<trkpt lat="52.548991403" lon="13.486058450">
<ele>95.196495</ele>
<time>2012-02-16T09:37:43Z</time>
</trkpt>
<trkpt lat="52.548952103" lon="13.486137291">
<ele>95.698402</ele>
<time>2012-02-16T09:37:48Z</time>
</trkpt>
<trkpt lat="52.548924012" lon="13.486119564">
<ele>95.901314</ele>
<time>2012-02-16T09:37:53Z</time>
</trkpt>
<trkpt lat="52.548890008" lon="13.486095583">
<ele>96.350571</ele>
<time>2012-02-16T09:37:58Z</time>
</trkpt>
<trkpt lat="52.548849889" lon="13.486067227">
<ele>97.415138</ele>
<time>2012-02-16T09:38:03Z</time>
</trkpt>
<trkpt lat="52.548819373" lon="13.486049438">
<ele>97.712898</ele>
<time>2012-02-16T09:38:08Z</time>
</trkpt>
<trkpt lat="52.548775853" lon="13.486037776">
<ele>97.209572</ele>
<time>2012-02-16T09:38:13Z</time>
</trkpt>
<trkpt lat="52.548739620" lon="13.486031022">
<ele>96.965363</ele>
<time>2012-02-16T09:38:18Z</time>
</trkpt>
<trkpt lat="52.548713457" lon="13.486003510">
<ele>97.353279</ele>
<time>2012-02-16T09:38:23Z</time>
</trkpt>
<trkpt lat="52.548677828" lon="13.485982852">
<ele>97.767441</ele>
<time>2012-02-16T09:38:28Z</time>
</trkpt>
<trkpt lat="52.548646081" lon="13.485958951">
<ele>97.776382</ele>
<time>2012-02-16T09:38:33Z</time>
</trkpt>
<trkpt lat="52.548617552" lon="13.485922114">
<ele>97.988647</ele>
<time>2012-02-16T09:38:38Z</time>
</trkpt>
<trkpt lat="52.548585193" lon="13.485899363">
<ele>98.583893</ele>
<time>2012-02-16T09:38:43Z</time>
</trkpt>
<trkpt lat="52.548553865" lon="13.485878334">
<ele>97.855659</ele>
<time>2012-02-16T09:38:48Z</time>
</trkpt>
<trkpt lat="52.548524073" lon="13.485860871">
<ele>96.861870</ele>
<time>2012-02-16T09:38:53Z</time>
</trkpt>
<trkpt lat="52.548505502" lon="13.485839940">
<ele>96.553726</ele>
<time>2012-02-16T09:38:58Z</time>
</trkpt>
<trkpt lat="52.548475052" lon="13.485802056">
<ele>97.154388</ele>
<time>2012-02-16T09:39:03Z</time>
</trkpt>
<trkpt lat="52.548441214" lon="13.485779671">
<ele>97.416153</ele>
<time>2012-02-16T09:39:08Z</time>
</trkpt>
<trkpt lat="52.548422413" lon="13.485749153">
<ele>98.276260</ele>
<time>2012-02-16T09:39:13Z</time>
</trkpt>
<trkpt lat="52.548389928" lon="13.485714516">
<ele>99.508316</ele>
<time>2012-02-16T09:39:18Z</time>
</trkpt>
<trkpt lat="52.548347749" lon="13.485679719">
<ele>100.151634</ele>
<time>2012-02-16T09:39:23Z</time>
</trkpt>
<trkpt lat="52.548293904" lon="13.485635521">
<ele>99.512932</ele>
<time>2012-02-16T09:39:28Z</time>
</trkpt>
<trkpt lat="52.548251622" lon="13.485602212">
<ele>98.356651</ele>
<time>2012-02-16T09:39:33Z</time>
</trkpt>
<trkpt lat="52.548217614" lon="13.485578306">
<ele>98.355713</ele>
<time>2012-02-16T09:39:38Z</time>
</trkpt>
<trkpt lat="52.548171100" lon="13.485561007">
<ele>98.042671</ele>
<time>2012-02-16T09:39:43Z</time>
</trkpt>
<trkpt lat="52.548132299" lon="13.485534660">
<ele>98.054893</ele>
<time>2012-02-16T09:39:48Z</time>
</trkpt>
<trkpt lat="52.548086603" lon="13.485505607">
<ele>99.329102</ele>
<time>2012-02-16T09:39:53Z</time>
</trkpt>
<trkpt lat="52.548050210" lon="13.485478723">
<ele>98.497574</ele>
<time>2012-02-16T09:39:58Z</time>
</trkpt>
<trkpt lat="52.548020653" lon="13.485530268">
<ele>98.422836</ele>
<time>2012-02-16T09:40:03Z</time>
</trkpt>
<trkpt lat="52.548001640" lon="13.485613404">
<ele>98.319191</ele>
<time>2012-02-16T09:40:08Z</time>
</trkpt>
<trkpt lat="52.547985933" lon="13.485685393">
<ele>98.335632</ele>
<time>2012-02-16T09:40:13Z</time>
</trkpt>
<trkpt lat="52.547968101" lon="13.485753992">
<ele>98.978249</ele>
<time>2012-02-16T09:40:18Z</time>
</trkpt>
<trkpt lat="52.547947208" lon="13.485805926">
<ele>99.475464</ele>
<time>2012-02-16T09:40:23Z</time>
</trkpt>
<trkpt lat="52.547932777" lon="13.485873257">
<ele>99.417023</ele>
<time>2012-02-16T09:40:28Z</time>
</trkpt>
<trkpt lat="52.547919982" lon="13.485943539">
<ele>99.052536</ele>
<time>2012-02-16T09:40:33Z</time>
</trkpt>
<trkpt lat="52.547926616" lon="13.486025025">
<ele>96.728905</ele>
<time>2012-02-16T09:40:38Z</time>
</trkpt>
<trkpt lat="52.547903767" lon="13.486097418">
<ele>97.546295</ele>
<time>2012-02-16T09:40:43Z</time>
</trkpt>
<trkpt lat="52.547887559" lon="13.486172409">
<ele>97.771461</ele>
<time>2012-02-16T09:40:48Z</time>
</trkpt>
<trkpt lat="52.547866107" lon="13.486242015">
<ele>98.552559</ele>
<time>2012-02-16T09:40:53Z</time>
</trkpt>
<trkpt lat="52.547850717" lon="13.486314380">
<ele>99.158058</ele>
<time>2012-02-16T09:40:58Z</time>
</trkpt>
<trkpt lat="52.547830042" lon="13.486363829">
<ele>100.319191</ele>
<time>2012-02-16T09:41:03Z</time>
</trkpt>
<trkpt lat="52.547819063" lon="13.486424151">
<ele>99.148895</ele>
<time>2012-02-16T09:41:08Z</time>
</trkpt>
<trkpt lat="52.547799075" lon="13.486478428">
<ele>99.197319</ele>
<time>2012-02-16T09:41:13Z</time>
</trkpt>
<trkpt lat="52.547777391" lon="13.486535607">
<ele>99.429886</ele>
<time>2012-02-16T09:41:18Z</time>
</trkpt>
<trkpt lat="52.547753384" lon="13.486588407">
<ele>100.166275</ele>
<time>2012-02-16T09:41:23Z</time>
</trkpt>
<trkpt lat="52.547740080" lon="13.486644361">
<ele>101.282799</ele>
<time>2012-02-16T09:41:28Z</time>
</trkpt>
<trkpt lat="52.547731575" lon="13.486705489">
<ele>101.077133</ele>
<time>2012-02-16T09:41:33Z</time>
</trkpt>
<trkpt lat="52.547725120" lon="13.486773690">
<ele>100.212921</ele>
<time>2012-02-16T09:41:38Z</time>
</trkpt>
<trkpt lat="52.547715913" lon="13.486843988">
<ele>99.681297</ele>
<time>2012-02-16T09:41:43Z</time>
</trkpt>
<trkpt lat="52.547694046" lon="13.486911230">
<ele>100.719337</ele>
<time>2012-02-16T09:41:48Z</time>
</trkpt>
<trkpt lat="52.547673541" lon="13.486965940">
<ele>100.245613</ele>
<time>2012-02-16T09:41:53Z</time>
</trkpt>
<trkpt lat="52.547654931" lon="13.487014465">
<ele>100.750786</ele>
<time>2012-02-16T09:41:58Z</time>
</trkpt>
<trkpt lat="52.547638967" lon="13.487066700">
<ele>99.883232</ele>
<time>2012-02-16T09:42:03Z</time>
</trkpt>
<trkpt lat="52.547623863" lon="13.487132457">
<ele>99.358093</ele>
<time>2012-02-16T09:42:08Z</time>
</trkpt>
<trkpt lat="52.547612054" lon="13.487206209">
<ele>99.324867</ele>
<time>2012-02-16T09:42:13Z</time>
</trkpt>
<trkpt lat="52.547602754" lon="13.487263940">
<ele>99.397385</ele>
<time>2012-02-16T09:42:18Z</time>
</trkpt>
<trkpt lat="52.547593989" lon="13.487339091">
<ele>99.411850</ele>
<time>2012-02-16T09:42:23Z</time>
</trkpt>
<trkpt lat="52.547574762" lon="13.487397698">
<ele>99.371063</ele>
<time>2012-02-16T09:42:28Z</time>
</trkpt>
<trkpt lat="52.547564391" lon="13.487467999">
<ele>98.589050</ele>
<time>2012-02-16T09:42:33Z</time>
</trkpt>
<trkpt lat="52.547521346" lon="13.487528678">
<ele>101.000175</ele>
<time>2012-02-16T09:42:38Z</time>
</trkpt>
<trkpt lat="52.547508867" lon="13.487598815">
<ele>100.840584</ele>
<time>2012-02-16T09:42:43Z</time>
</trkpt>
<trkpt lat="52.547504891" lon="13.487674403">
<ele>101.174309</ele>
<time>2012-02-16T09:42:48Z</time>
</trkpt>
<trkpt lat="52.547480447" lon="13.487733168">
<ele>102.441223</ele>
<time>2012-02-16T09:42:53Z</time>
</trkpt>
<trkpt lat="52.547464983" lon="13.487809656">
<ele>102.470009</ele>
<time>2012-02-16T09:42:58Z</time>
</trkpt>
<trkpt lat="52.547436646" lon="13.487860574">
<ele>102.601128</ele>
<time>2012-02-16T09:43:03Z</time>
</trkpt>
<trkpt lat="52.547416129" lon="13.487934606">
<ele>101.090736</ele>
<time>2012-02-16T09:43:08Z</time>
</trkpt>
<trkpt lat="52.547396876" lon="13.488002862">
<ele>101.170357</ele>
<time>2012-02-16T09:43:13Z</time>
</trkpt>
<trkpt lat="52.547366985" lon="13.488064228">
<ele>102.133804</ele>
<time>2012-02-16T09:43:18Z</time>
</trkpt>
<trkpt lat="52.547349845" lon="13.488127020">
<ele>102.024811</ele>
<time>2012-02-16T09:43:23Z</time>
</trkpt>
<trkpt lat="52.547334615" lon="13.488182106">
<ele>101.219337</ele>
<time>2012-02-16T09:43:28Z</time>
</trkpt>
<trkpt lat="52.547318367" lon="13.488238789">
<ele>100.663704</ele>
<time>2012-02-16T09:43:33Z</time>
</trkpt>
<trkpt lat="52.547299872" lon="13.488316819">
<ele>100.420967</ele>
<time>2012-02-16T09:43:38Z</time>
</trkpt>
<trkpt lat="52.547294709" lon="13.488338041">
<ele>100.454567</ele>
<time>2012-02-16T09:43:43Z</time>
</trkpt>
<trkpt lat="52.547288869" lon="13.488351982">
<ele>100.305183</ele>
<time>2012-02-16T09:43:48Z</time>
</trkpt>
<trkpt lat="52.547276350" lon="13.488402715">
<ele>100.448914</ele>
<time>2012-02-16T09:43:53Z</time>
</trkpt>
<trkpt lat="52.547260757" lon="13.488453102">
<ele>100.084839</ele>
<time>2012-02-16T09:43:58Z</time>
</trkpt>
<trkpt lat="52.547246229" lon="13.488507038">
<ele>99.934280</ele>
<time>2012-02-16T09:44:03Z</time>
</trkpt>
<trkpt lat="52.547228766" lon="13.488544023">
<ele>99.593933</ele>
<time>2012-02-16T09:44:08Z</time>
</trkpt>
<trkpt lat="52.547225042" lon="13.488549110">
<ele>99.485458</ele>
<time>2012-02-16T09:44:13Z</time>
</trkpt>
<trkpt lat="52.547198753" lon="13.488611744">
<ele>100.336777</ele>
<time>2012-02-16T09:44:18Z</time>
</trkpt>
<trkpt lat="52.547176861" lon="13.488676085">
<ele>100.870346</ele>
<time>2012-02-16T09:44:23Z</time>
</trkpt>
<trkpt lat="52.547153801" lon="13.488741607">
<ele>101.305946</ele>
<time>2012-02-16T09:44:28Z</time>
</trkpt>
<trkpt lat="52.547142355" lon="13.488821352">
<ele>101.017204</ele>
<time>2012-02-16T09:44:33Z</time>
</trkpt>
<trkpt lat="52.547128626" lon="13.488890528">
<ele>99.546257</ele>
<time>2012-02-16T09:44:38Z</time>
</trkpt>
<trkpt lat="52.547119269" lon="13.488967668">
<ele>97.659447</ele>
<time>2012-02-16T09:44:43Z</time>
</trkpt>
<trkpt lat="52.547099843" lon="13.489032267">
<ele>99.097137</ele>
<time>2012-02-16T09:44:48Z</time>
</trkpt>
<trkpt lat="52.547082287" lon="13.489101100">
<ele>98.114754</ele>
<time>2012-02-16T09:44:53Z</time>
</trkpt>
<trkpt lat="52.547067019" lon="13.489164778">
<ele>98.004311</ele>
<time>2012-02-16T09:44:58Z</time>
</trkpt>
<trkpt lat="52.547054287" lon="13.489225096">
<ele>98.044754</ele>
<time>2012-02-16T09:45:03Z</time>
</trkpt>
<trkpt lat="52.547035897" lon="13.489289363">
<ele>98.931702</ele>
<time>2012-02-16T09:45:08Z</time>
</trkpt>
<trkpt lat="52.547018770" lon="13.489351621">
<ele>99.284592</ele>
<time>2012-02-16T09:45:13Z</time>
</trkpt>
<trkpt lat="52.547003265" lon="13.489423400">
<ele>98.795799</ele>
<time>2012-02-16T09:45:18Z</time>
</trkpt>
<trkpt lat="52.546987814" lon="13.489495146">
<ele>97.993423</ele>
<time>2012-02-16T09:45:23Z</time>
</trkpt>
<trkpt lat="52.546974103" lon="13.489562994">
<ele>97.562477</ele>
<time>2012-02-16T09:45:28Z</time>
</trkpt>
<trkpt lat="52.546960252" lon="13.489630709">
<ele>95.804527</ele>
<time>2012-02-16T09:45:33Z</time>
</trkpt>
<trkpt lat="52.546938565" lon="13.489685464">
<ele>96.849289</ele>
<time>2012-02-16T09:45:38Z</time>
</trkpt>
<trkpt lat="52.546921112" lon="13.489747694">
<ele>98.461861</ele>
<time>2012-02-16T09:45:43Z</time>
</trkpt>
<trkpt lat="52.546899458" lon="13.489812498">
<ele>99.311172</ele>
<time>2012-02-16T09:45:48Z</time>
</trkpt>
<trkpt lat="52.546879077" lon="13.489879538">
<ele>98.869186</ele>
<time>2012-02-16T09:45:53Z</time>
</trkpt>
<trkpt lat="52.546860476" lon="13.489946976">
<ele>98.865936</ele>
<time>2012-02-16T09:45:58Z</time>
</trkpt>
<trkpt lat="52.546839821" lon="13.490007413">
<ele>99.277596</ele>
<time>2012-02-16T09:46:03Z</time>
</trkpt>
<trkpt lat="52.546819433" lon="13.490068540">
<ele>99.698402</ele>
<time>2012-02-16T09:46:08Z</time>
</trkpt>
<trkpt lat="52.546800779" lon="13.490138582">
<ele>99.947098</ele>
<time>2012-02-16T09:46:13Z</time>
</trkpt>
<trkpt lat="52.546788180" lon="13.490209148">
<ele>100.522789</ele>
<time>2012-02-16T09:46:18Z</time>
</trkpt>
<trkpt lat="52.546760827" lon="13.490281312">
<ele>100.952919</ele>
<time>2012-02-16T09:46:23Z</time>
</trkpt>
<trkpt lat="52.546744783" lon="13.490350798">
<ele>100.701347</ele>
<time>2012-02-16T09:46:28Z</time>
</trkpt>
<trkpt lat="52.546726978" lon="13.490413735">
<ele>100.889328</ele>
<time>2012-02-16T09:46:33Z</time>
</trkpt>
<trkpt lat="52.546707724" lon="13.490472911">
<ele>100.981094</ele>
<time>2012-02-16T09:46:38Z</time>
</trkpt>
<trkpt lat="52.546696295" lon="13.490545988">
<ele>100.116219</ele>
<time>2012-02-16T09:46:43Z</time>
</trkpt>
<trkpt lat="52.546685358" lon="13.490624521">
<ele>99.183762</ele>
<time>2012-02-16T09:46:48Z</time>
</trkpt>
<trkpt lat="52.546667197" lon="13.490697034">
<ele>99.413727</ele>
<time>2012-02-16T09:46:53Z</time>
</trkpt>
<trkpt lat="52.546658526" lon="13.490767763">
<ele>99.193771</ele>
<time>2012-02-16T09:46:58Z</time>
</trkpt>
<trkpt lat="52.546632155" lon="13.490814567">
<ele>100.517899</ele>
<time>2012-02-16T09:47:03Z</time>
</trkpt>
<trkpt lat="52.546612675" lon="13.490883793">
<ele>100.479439</ele>
<time>2012-02-16T09:47:08Z</time>
</trkpt>
<trkpt lat="52.546601743" lon="13.490950344">
<ele>100.632172</ele>
<time>2012-02-16T09:47:13Z</time>
</trkpt>
<trkpt lat="52.546580729" lon="13.491015706">
<ele>100.639099</ele>
<time>2012-02-16T09:47:18Z</time>
</trkpt>
<trkpt lat="52.546562318" lon="13.491088236">
<ele>100.993492</ele>
<time>2012-02-16T09:47:23Z</time>
</trkpt>
<trkpt lat="52.546554093" lon="13.491178138">
<ele>99.504639</ele>
<time>2012-02-16T09:47:28Z</time>
</trkpt>
<trkpt lat="52.546525243" lon="13.491263473">
<ele>99.944641</ele>
<time>2012-02-16T09:47:33Z</time>
</trkpt>
<trkpt lat="52.546502850" lon="13.491335555">
<ele>100.150139</ele>
<time>2012-02-16T09:47:38Z</time>
</trkpt>
<trkpt lat="52.546489475" lon="13.491409639">
<ele>99.772919</ele>
<time>2012-02-16T09:47:43Z</time>
</trkpt>
<trkpt lat="52.546468446" lon="13.491469361">
<ele>98.997032</ele>
<time>2012-02-16T09:47:48Z</time>
</trkpt>
<trkpt lat="52.546454449" lon="13.491537266">
<ele>98.103043</ele>
<time>2012-02-16T09:47:53Z</time>
</trkpt>
<trkpt lat="52.546432925" lon="13.491610128">
<ele>97.690437</ele>
<time>2012-02-16T09:47:58Z</time>
</trkpt>
<trkpt lat="52.546408865" lon="13.491680937">
<ele>97.578560</ele>
<time>2012-02-16T09:48:03Z</time>
</trkpt>
<trkpt lat="52.546395891" lon="13.491761300">
<ele>96.590271</ele>
<time>2012-02-16T09:48:08Z</time>
</trkpt>
<trkpt lat="52.546360736" lon="13.491811287">
<ele>96.799911</ele>
<time>2012-02-16T09:48:13Z</time>
</trkpt>
<trkpt lat="52.546342387" lon="13.491878837">
<ele>96.871475</ele>
<time>2012-02-16T09:48:18Z</time>
</trkpt>
<trkpt lat="52.546320385" lon="13.491939584">
<ele>96.559944</ele>
<time>2012-02-16T09:48:23Z</time>
</trkpt>
<trkpt lat="52.546311953" lon="13.492016131">
<ele>96.397980</ele>
<time>2012-02-16T09:48:28Z</time>
</trkpt>
<trkpt lat="52.546296503" lon="13.492080511">
<ele>96.308800</ele>
<time>2012-02-16T09:48:33Z</time>
</trkpt>
<trkpt lat="52.546275774" lon="13.492146185">
<ele>96.398834</ele>
<time>2012-02-16T09:48:38Z</time>
</trkpt>
<trkpt lat="52.546259623" lon="13.492214895">
<ele>96.252792</ele>
<time>2012-02-16T09:48:43Z</time>
</trkpt>
<trkpt lat="52.546248843" lon="13.492282410">
<ele>96.461761</ele>
<time>2012-02-16T09:48:48Z</time>
</trkpt>
<trkpt lat="52.546234328" lon="13.492343980">
<ele>96.048332</ele>
<time>2012-02-16T09:48:53Z</time>
</trkpt>
<trkpt lat="52.546225942" lon="13.492398509">
<ele>95.168152</ele>
<time>2012-02-16T09:48:58Z</time>
</trkpt>
<trkpt lat="52.546207747" lon="13.492452248">
<ele>94.605026</ele>
<time>2012-02-16T09:49:03Z</time>
</trkpt>
<trkpt lat="52.546190482" lon="13.492508175">
<ele>95.322639</ele>
<time>2012-02-16T09:49:08Z</time>
</trkpt>
<trkpt lat="52.546175506" lon="13.492556963">
<ele>95.409767</ele>
<time>2012-02-16T09:49:13Z</time>
</trkpt>
<trkpt lat="52.546159164" lon="13.492618421">
<ele>95.450882</ele>
<time>2012-02-16T09:49:18Z</time>
</trkpt>
<trkpt lat="52.546133749" lon="13.492682982">
<ele>95.251907</ele>
<time>2012-02-16T09:49:23Z</time>
</trkpt>
<trkpt lat="52.546118602" lon="13.492730184">
<ele>95.257690</ele>
<time>2012-02-16T09:49:28Z</time>
</trkpt>
<trkpt lat="52.546096651" lon="13.492789438">
<ele>94.926826</ele>
<time>2012-02-16T09:49:33Z</time>
</trkpt>
<trkpt lat="52.546086239" lon="13.492857426">
<ele>95.202751</ele>
<time>2012-02-16T09:49:38Z</time>
</trkpt>
<trkpt lat="52.546064870" lon="13.492917032">
<ele>94.963120</ele>
<time>2012-02-16T09:49:43Z</time>
</trkpt>
<trkpt lat="52.546053424" lon="13.492974145">
<ele>95.898872</ele>
<time>2012-02-16T09:49:48Z</time>
</trkpt>
<trkpt lat="52.546039099" lon="13.493039059">
<ele>95.632088</ele>
<time>2012-02-16T09:49:53Z</time>
</trkpt>
<trkpt lat="52.546021335" lon="13.493096821">
<ele>95.118797</ele>
<time>2012-02-16T09:49:58Z</time>
</trkpt>
<trkpt lat="52.546005090" lon="13.493168632">
<ele>94.961540</ele>
<time>2012-02-16T09:50:03Z</time>
</trkpt>
<trkpt lat="52.545995557" lon="13.493236796">
<ele>95.880234</ele>
<time>2012-02-16T09:50:08Z</time>
</trkpt>
<trkpt lat="52.545974714" lon="13.493300539">
<ele>95.935692</ele>
<time>2012-02-16T09:50:13Z</time>
</trkpt>
<trkpt lat="52.545955901" lon="13.493368258">
<ele>95.607964</ele>
<time>2012-02-16T09:50:18Z</time>
</trkpt>
<trkpt lat="52.545943718" lon="13.493416841">
<ele>95.824745</ele>
<time>2012-02-16T09:50:23Z</time>
</trkpt>
<trkpt lat="52.545935770" lon="13.493479897">
<ele>95.489700</ele>
<time>2012-02-16T09:50:28Z</time>
</trkpt>
<trkpt lat="52.545912881" lon="13.493526488">
<ele>95.034248</ele>
<time>2012-02-16T09:50:33Z</time>
</trkpt>
<trkpt lat="52.545897547" lon="13.493587643">
<ele>94.436592</ele>
<time>2012-02-16T09:50:38Z</time>
</trkpt>
<trkpt lat="52.545878371" lon="13.493640419">
<ele>94.728714</ele>
<time>2012-02-16T09:50:43Z</time>
</trkpt>
<trkpt lat="52.545863402" lon="13.493684650">
<ele>94.216675</ele>
<time>2012-02-16T09:50:48Z</time>
</trkpt>
<trkpt lat="52.545857478" lon="13.493742606">
<ele>94.601089</ele>
<time>2012-02-16T09:50:53Z</time>
</trkpt>
<trkpt lat="52.545838137" lon="13.493791739">
<ele>94.542252</ele>
<time>2012-02-16T09:50:58Z</time>
</trkpt>
<trkpt lat="52.545827278" lon="13.493789496">
<ele>93.905983</ele>
<time>2012-02-16T09:51:03Z</time>
</trkpt>
<trkpt lat="52.545825576" lon="13.493793288">
<ele>93.818146</ele>
<time>2012-02-16T09:51:08Z</time>
</trkpt>
<trkpt lat="52.545814878" lon="13.493825979">
<ele>93.642326</ele>
<time>2012-02-16T09:51:13Z</time>
</trkpt>
<trkpt lat="52.545795989" lon="13.493894068">
<ele>93.209953</ele>
<time>2012-02-16T09:51:18Z</time>
</trkpt>
<trkpt lat="52.545784750" lon="13.493957693">
<ele>93.967987</ele>
<time>2012-02-16T09:51:23Z</time>
</trkpt>
<trkpt lat="52.545767517" lon="13.494014342">
<ele>94.414970</ele>
<time>2012-02-16T09:51:28Z</time>
</trkpt>
<trkpt lat="52.545744725" lon="13.494090896">
<ele>94.675972</ele>
<time>2012-02-16T09:51:33Z</time>
</trkpt>
<trkpt lat="52.545725455" lon="13.494161169">
<ele>94.485130</ele>
<time>2012-02-16T09:51:38Z</time>
</trkpt>
<trkpt lat="52.545713731" lon="13.494229340">
<ele>94.378349</ele>
<time>2012-02-16T09:51:43Z</time>
</trkpt>
<trkpt lat="52.545691546" lon="13.494302697">
<ele>94.620628</ele>
<time>2012-02-16T09:51:48Z</time>
</trkpt>
<trkpt lat="52.545690991" lon="13.494361094">
<ele>93.511452</ele>
<time>2012-02-16T09:51:53Z</time>
</trkpt>
<trkpt lat="52.545716447" lon="13.494394379">
<ele>92.664452</ele>
<time>2012-02-16T09:51:58Z</time>
</trkpt>
<trkpt lat="52.545766380" lon="13.494406210">
<ele>91.549973</ele>
<time>2012-02-16T09:52:03Z</time>
</trkpt>
<trkpt lat="52.545816503" lon="13.494444459">
<ele>92.617271</ele>
<time>2012-02-16T09:52:08Z</time>
</trkpt>
<trkpt lat="52.545869092" lon="13.494465710">
<ele>92.149979</ele>
<time>2012-02-16T09:52:13Z</time>
</trkpt>
<trkpt lat="52.545910468" lon="13.494514047">
<ele>92.462852</ele>
<time>2012-02-16T09:52:18Z</time>
</trkpt>
<trkpt lat="52.545918424" lon="13.494559118">
<ele>91.808159</ele>
<time>2012-02-16T09:52:23Z</time>
</trkpt>
<trkpt lat="52.545907722" lon="13.494622334">
<ele>91.831390</ele>
<time>2012-02-16T09:52:28Z</time>
</trkpt>
<trkpt lat="52.545919480" lon="13.494675494">
<ele>91.959206</ele>
<time>2012-02-16T09:52:33Z</time>
</trkpt>
<trkpt lat="52.545958695" lon="13.494707814">
<ele>92.022964</ele>
<time>2012-02-16T09:52:38Z</time>
</trkpt>
<trkpt lat="52.545992792" lon="13.494728459">
<ele>91.625641</ele>
<time>2012-02-16T09:52:43Z</time>
</trkpt>
<trkpt lat="52.546011617" lon="13.494782053">
<ele>92.111305</ele>
<time>2012-02-16T09:52:48Z</time>
</trkpt>
<trkpt lat="52.546042191" lon="13.494831593">
<ele>92.242477</ele>
<time>2012-02-16T09:52:53Z</time>
</trkpt>
<trkpt lat="52.546083161" lon="13.494852050">
<ele>92.044472</ele>
<time>2012-02-16T09:52:58Z</time>
</trkpt>
<trkpt lat="52.546118953" lon="13.494881223">
<ele>91.639915</ele>
<time>2012-02-16T09:53:03Z</time>
</trkpt>
<trkpt lat="52.546162921" lon="13.494901000">
<ele>92.538773</ele>
<time>2012-02-16T09:53:08Z</time>
</trkpt>
<trkpt lat="52.546209499" lon="13.494936069">
<ele>93.398773</ele>
<time>2012-02-16T09:53:13Z</time>
</trkpt>
<trkpt lat="52.546226245" lon="13.494995162">
<ele>94.416618</ele>
<time>2012-02-16T09:53:18Z</time>
</trkpt>
<trkpt lat="52.546220378" lon="13.495060020">
<ele>94.800751</ele>
<time>2012-02-16T09:53:23Z</time>
</trkpt>
<trkpt lat="52.546193349" lon="13.495098216">
<ele>94.928772</ele>
<time>2012-02-16T09:53:28Z</time>
</trkpt>
<trkpt lat="52.546173053" lon="13.495151454">
<ele>95.563072</ele>
<time>2012-02-16T09:53:33Z</time>
</trkpt>
<trkpt lat="52.546155269" lon="13.495227797">
<ele>94.732132</ele>
<time>2012-02-16T09:53:38Z</time>
</trkpt>
<trkpt lat="52.546132349" lon="13.495296561">
<ele>94.328911</ele>
<time>2012-02-16T09:53:43Z</time>
</trkpt>
<trkpt lat="52.546103725" lon="13.495363733">
<ele>94.408058</ele>
<time>2012-02-16T09:53:48Z</time>
</trkpt>
<trkpt lat="52.546071595" lon="13.495407993">
<ele>94.510468</ele>
<time>2012-02-16T09:53:53Z</time>
</trkpt>
<trkpt lat="52.546036946" lon="13.495456043">
<ele>94.701218</ele>
<time>2012-02-16T09:53:58Z</time>
</trkpt>
<trkpt lat="52.546014509" lon="13.495499628">
<ele>93.653732</ele>
<time>2012-02-16T09:54:03Z</time>
</trkpt>
<trkpt lat="52.545980226" lon="13.495545226">
<ele>93.967133</ele>
<time>2012-02-16T09:54:08Z</time>
</trkpt>
<trkpt lat="52.545952141" lon="13.495585687">
<ele>94.127174</ele>
<time>2012-02-16T09:54:13Z</time>
</trkpt>
<trkpt lat="52.545920975" lon="13.495622757">
<ele>94.253998</ele>
<time>2012-02-16T09:54:18Z</time>
</trkpt>
<trkpt lat="52.545891274" lon="13.495661012">
<ele>93.704117</ele>
<time>2012-02-16T09:54:23Z</time>
</trkpt>
<trkpt lat="52.545879262" lon="13.495722814">
<ele>91.482224</ele>
<time>2012-02-16T09:54:28Z</time>
</trkpt>
<trkpt lat="52.545904443" lon="13.495774037">
<ele>89.881859</ele>
<time>2012-02-16T09:54:33Z</time>
</trkpt>
<trkpt lat="52.545931359" lon="13.495814850">
<ele>88.571472</ele>
<time>2012-02-16T09:54:38Z</time>
</trkpt>
<trkpt lat="52.545953393" lon="13.495861617">
<ele>88.237022</ele>
<time>2012-02-16T09:54:43Z</time>
</trkpt>
<trkpt lat="52.545969530" lon="13.495910393">
<ele>89.751564</ele>
<time>2012-02-16T09:54:48Z</time>
</trkpt>
<trkpt lat="52.545982584" lon="13.495968512">
<ele>90.858009</ele>
<time>2012-02-16T09:54:53Z</time>
</trkpt>
<trkpt lat="52.545967995" lon="13.496044396">
<ele>95.018036</ele>
<time>2012-02-16T09:54:58Z</time>
</trkpt>
<trkpt lat="52.545985579" lon="13.496112815">
<ele>96.773727</ele>
<time>2012-02-16T09:55:03Z</time>
</trkpt>
<trkpt lat="52.546011129" lon="13.496192914">
<ele>98.317513</ele>
<time>2012-02-16T09:55:08Z</time>
</trkpt>
<trkpt lat="52.546038599" lon="13.496264795">
<ele>99.993187</ele>
<time>2012-02-16T09:55:13Z</time>
</trkpt>
<trkpt lat="52.546060599" lon="13.496296525">
<ele>98.149223</ele>
<time>2012-02-16T09:55:18Z</time>
</trkpt>
<trkpt lat="52.546089609" lon="13.496338827">
<ele>98.232155</ele>
<time>2012-02-16T09:55:23Z</time>
</trkpt>
<trkpt lat="52.546119872" lon="13.496373842">
<ele>97.837914</ele>
<time>2012-02-16T09:55:28Z</time>
</trkpt>
<trkpt lat="52.546145364" lon="13.496414516">
<ele>98.672745</ele>
<time>2012-02-16T09:55:33Z</time>
</trkpt>
<trkpt lat="52.546177532" lon="13.496443106">
<ele>97.977844</ele>
<time>2012-02-16T09:55:38Z</time>
</trkpt>
<trkpt lat="52.546203015" lon="13.496479900">
<ele>97.082245</ele>
<time>2012-02-16T09:55:43Z</time>
</trkpt>
<trkpt lat="52.546234454" lon="13.496518293">
<ele>97.731522</ele>
<time>2012-02-16T09:55:48Z</time>
</trkpt>
<trkpt lat="52.546271895" lon="13.496545195">
<ele>98.491081</ele>
<time>2012-02-16T09:55:53Z</time>
</trkpt>
<trkpt lat="52.546306732" lon="13.496573486">
<ele>98.899368</ele>
<time>2012-02-16T09:55:58Z</time>
</trkpt>
<trkpt lat="52.546325001" lon="13.496592701">
<ele>99.322372</ele>
<time>2012-02-16T09:56:03Z</time>
</trkpt>
<trkpt lat="52.546357603" lon="13.496663700">
<ele>100.909920</ele>
<time>2012-02-16T09:56:08Z</time>
</trkpt>
<trkpt lat="52.546387377" lon="13.496760491">
<ele>104.265556</ele>
<time>2012-02-16T09:56:13Z</time>
</trkpt>
<trkpt lat="52.546412755" lon="13.496849103">
<ele>107.278870</ele>
<time>2012-02-16T09:56:18Z</time>
</trkpt>
<trkpt lat="52.546446019" lon="13.496903057">
<ele>111.444656</ele>
<time>2012-02-16T09:56:23Z</time>
</trkpt>
<trkpt lat="52.546473883" lon="13.496958440">
<ele>114.064857</ele>
<time>2012-02-16T09:56:28Z</time>
</trkpt>
<trkpt lat="52.546501197" lon="13.497010760">
<ele>116.991241</ele>
<time>2012-02-16T09:56:33Z</time>
</trkpt>
<trkpt lat="52.546524410" lon="13.497086509">
<ele>117.807564</ele>
<time>2012-02-16T09:56:38Z</time>
</trkpt>
<trkpt lat="52.546534580" lon="13.497119328">
<ele>117.750092</ele>
<time>2012-02-16T09:56:43Z</time>
</trkpt>
<trkpt lat="52.546562154" lon="13.497187720">
<ele>118.572952</ele>
<time>2012-02-16T09:56:48Z</time>
</trkpt>
<trkpt lat="52.546587249" lon="13.497234103">
<ele>119.839760</ele>
<time>2012-02-16T09:56:53Z</time>
</trkpt>
<trkpt lat="52.546624736" lon="13.497294147">
<ele>119.359146</ele>
<time>2012-02-16T09:56:58Z</time>
</trkpt>
<trkpt lat="52.546661113" lon="13.497330774">
<ele>118.472176</ele>
<time>2012-02-16T09:57:03Z</time>
</trkpt>
<trkpt lat="52.546683941" lon="13.497367519">
<ele>116.492371</ele>
<time>2012-02-16T09:57:08Z</time>
</trkpt>
<trkpt lat="52.546691052" lon="13.497431569">
<ele>114.562073</ele>
<time>2012-02-16T09:57:13Z</time>
</trkpt>
<trkpt lat="52.546716796" lon="13.497461960">
<ele>112.650299</ele>
<time>2012-02-16T09:57:18Z</time>
</trkpt>
<trkpt lat="52.546744750" lon="13.497507666">
<ele>111.885941</ele>
<time>2012-02-16T09:57:23Z</time>
</trkpt>
<trkpt lat="52.546769697" lon="13.497518892">
<ele>107.807487</ele>
<time>2012-02-16T09:57:28Z</time>
</trkpt>
<trkpt lat="52.546791335" lon="13.497541295">
<ele>104.836487</ele>
<time>2012-02-16T09:57:33Z</time>
</trkpt>
<trkpt lat="52.546819428" lon="13.497550709">
<ele>103.113518</ele>
<time>2012-02-16T09:57:38Z</time>
</trkpt>
<trkpt lat="52.546850001" lon="13.497591323">
<ele>102.074287</ele>
<time>2012-02-16T09:57:43Z</time>
</trkpt>
<trkpt lat="52.546872510" lon="13.497669267">
<ele>103.025818</ele>
<time>2012-02-16T09:57:48Z</time>
</trkpt>
<trkpt lat="52.546895739" lon="13.497727152">
<ele>103.376839</ele>
<time>2012-02-16T09:57:53Z</time>
</trkpt>
<trkpt lat="52.546930896" lon="13.497745430">
<ele>102.800697</ele>
<time>2012-02-16T09:57:58Z</time>
</trkpt>
<trkpt lat="52.546953326" lon="13.497779218">
<ele>103.153442</ele>
<time>2012-02-16T09:58:03Z</time>
</trkpt>
<trkpt lat="52.546973213" lon="13.497847213">
<ele>104.884026</ele>
<time>2012-02-16T09:58:08Z</time>
</trkpt>
<trkpt lat="52.547007108" lon="13.497905971">
<ele>105.682739</ele>
<time>2012-02-16T09:58:13Z</time>
</trkpt>
<trkpt lat="52.547029465" lon="13.497975930">
<ele>105.889015</ele>
<time>2012-02-16T09:58:18Z</time>
</trkpt>
<trkpt lat="52.547059441" lon="13.498053821">
<ele>108.606598</ele>
<time>2012-02-16T09:58:23Z</time>
</trkpt>
<trkpt lat="52.547079141" lon="13.498098294">
<ele>109.369370</ele>
<time>2012-02-16T09:58:28Z</time>
</trkpt>
<trkpt lat="52.547094477" lon="13.498130763">
<ele>107.527252</ele>
<time>2012-02-16T09:58:33Z</time>
</trkpt>
<trkpt lat="52.547116487" lon="13.498143260">
<ele>105.656929</ele>
<time>2012-02-16T09:58:38Z</time>
</trkpt>
<trkpt lat="52.547142087" lon="13.498176534">
<ele>104.484962</ele>
<time>2012-02-16T09:58:43Z</time>
</trkpt>
<trkpt lat="52.547160745" lon="13.498217169">
<ele>103.126091</ele>
<time>2012-02-16T09:58:48Z</time>
</trkpt>
<trkpt lat="52.547180755" lon="13.498230785">
<ele>100.512596</ele>
<time>2012-02-16T09:58:53Z</time>
</trkpt>
<trkpt lat="52.547204341" lon="13.498242732">
<ele>97.843819</ele>
<time>2012-02-16T09:58:58Z</time>
</trkpt>
<trkpt lat="52.547234269" lon="13.498249497">
<ele>94.855530</ele>
<time>2012-02-16T09:59:03Z</time>
</trkpt>
<trkpt lat="52.547270240" lon="13.498272686">
<ele>93.292999</ele>
<time>2012-02-16T09:59:08Z</time>
</trkpt>
<trkpt lat="52.547298208" lon="13.498316369">
<ele>92.232269</ele>
<time>2012-02-16T09:59:13Z</time>
</trkpt>
<trkpt lat="52.547326096" lon="13.498373462">
<ele>92.187469</ele>
<time>2012-02-16T09:59:18Z</time>
</trkpt>
<trkpt lat="52.547342466" lon="13.498430448">
<ele>91.796806</ele>
<time>2012-02-16T09:59:23Z</time>
</trkpt>
<trkpt lat="52.547367836" lon="13.498495552">
<ele>92.605064</ele>
<time>2012-02-16T09:59:28Z</time>
</trkpt>
<trkpt lat="52.547393519" lon="13.498589381">
<ele>94.086868</ele>
<time>2012-02-16T09:59:33Z</time>
</trkpt>
<trkpt lat="52.547420109" lon="13.498643114">
<ele>95.369339</ele>
<time>2012-02-16T09:59:38Z</time>
</trkpt>
<trkpt lat="52.547452545" lon="13.498672767">
<ele>92.551132</ele>
<time>2012-02-16T09:59:43Z</time>
</trkpt>
<trkpt lat="52.547481959" lon="13.498729371">
<ele>91.265488</ele>
<time>2012-02-16T09:59:48Z</time>
</trkpt>
<trkpt lat="52.547513035" lon="13.498775301">
<ele>90.897804</ele>
<time>2012-02-16T09:59:53Z</time>
</trkpt>
<trkpt lat="52.547539458" lon="13.498808665">
<ele>90.579041</ele>
<time>2012-02-16T09:59:58Z</time>
</trkpt>
<trkpt lat="52.547562685" lon="13.498864961">
<ele>89.792068</ele>
<time>2012-02-16T10:00:03Z</time>
</trkpt>
<trkpt lat="52.547589793" lon="13.498924661">
<ele>89.660751</ele>
<time>2012-02-16T10:00:08Z</time>
</trkpt>
<trkpt lat="52.547620454" lon="13.498987396">
<ele>89.387390</ele>
<time>2012-02-16T10:00:13Z</time>
</trkpt>
<trkpt lat="52.547639546" lon="13.499040616">
<ele>90.015137</ele>
<time>2012-02-16T10:00:18Z</time>
</trkpt>
<trkpt lat="52.547658740" lon="13.499094743">
<ele>90.688744</ele>
<time>2012-02-16T10:00:23Z</time>
</trkpt>
<trkpt lat="52.547680089" lon="13.499145108">
<ele>91.616745</ele>
<time>2012-02-16T10:00:28Z</time>
</trkpt>
<trkpt lat="52.547711051" lon="13.499186744">
<ele>91.663231</ele>
<time>2012-02-16T10:00:33Z</time>
</trkpt>
<trkpt lat="52.547745514" lon="13.499259037">
<ele>94.215996</ele>
<time>2012-02-16T10:00:38Z</time>
</trkpt>
<trkpt lat="52.547778900" lon="13.499325529">
<ele>95.379829</ele>
<time>2012-02-16T10:00:43Z</time>
</trkpt>
<trkpt lat="52.547799476" lon="13.499367009">
<ele>94.267059</ele>
<time>2012-02-16T10:00:48Z</time>
</trkpt>
<trkpt lat="52.547827884" lon="13.499425827">
<ele>94.883667</ele>
<time>2012-02-16T10:00:53Z</time>
</trkpt>
<trkpt lat="52.547849243" lon="13.499480845">
<ele>94.744522</ele>
<time>2012-02-16T10:00:58Z</time>
</trkpt>
<trkpt lat="52.547877004" lon="13.499514536">
<ele>94.173294</ele>
<time>2012-02-16T10:01:03Z</time>
</trkpt>
<trkpt lat="52.547906158" lon="13.499576939">
<ele>95.248184</ele>
<time>2012-02-16T10:01:08Z</time>
</trkpt>
<trkpt lat="52.547933977" lon="13.499638325">
<ele>95.569016</ele>
<time>2012-02-16T10:01:13Z</time>
</trkpt>
<trkpt lat="52.547936253" lon="13.499677958">
<ele>95.404800</ele>
<time>2012-02-16T10:01:18Z</time>
</trkpt>
<trkpt lat="52.547934600" lon="13.499671948">
<ele>95.253952</ele>
<time>2012-02-16T10:01:23Z</time>
</trkpt>
<trkpt lat="52.547932919" lon="13.499677595">
<ele>95.231789</ele>
<time>2012-02-16T10:01:28Z</time>
</trkpt>
<trkpt lat="52.547932602" lon="13.499677327">
<ele>95.276207</ele>
<time>2012-02-16T10:01:33Z</time>
</trkpt>
<trkpt lat="52.547930736" lon="13.499680154">
<ele>95.298882</ele>
<time>2012-02-16T10:01:38Z</time>
</trkpt>
<trkpt lat="52.547930366" lon="13.499680499">
<ele>95.288094</ele>
<time>2012-02-16T10:01:43Z</time>
</trkpt>
<trkpt lat="52.547889718" lon="13.499747794">
<ele>95.461937</ele>
<time>2012-02-16T10:01:48Z</time>
</trkpt>
<trkpt lat="52.547868441" lon="13.499838916">
<ele>95.671661</ele>
<time>2012-02-16T10:01:53Z</time>
</trkpt>
<trkpt lat="52.547889031" lon="13.499902494">
<ele>95.724518</ele>
<time>2012-02-16T10:01:58Z</time>
</trkpt>
<trkpt lat="52.547909722" lon="13.499969569">
<ele>96.049606</ele>
<time>2012-02-16T10:02:03Z</time>
</trkpt>
<trkpt lat="52.547941790" lon="13.500024318">
<ele>95.595795</ele>
<time>2012-02-16T10:02:08Z</time>
</trkpt>
<trkpt lat="52.547940389" lon="13.500093016">
<ele>95.811058</ele>
<time>2012-02-16T10:02:13Z</time>
</trkpt>
<trkpt lat="52.547918606" lon="13.500157292">
<ele>95.939034</ele>
<time>2012-02-16T10:02:18Z</time>
</trkpt>
<trkpt lat="52.547904230" lon="13.500226051">
<ele>95.068687</ele>
<time>2012-02-16T10:02:23Z</time>
</trkpt>
<trkpt lat="52.547879373" lon="13.500303807">
<ele>95.067123</ele>
<time>2012-02-16T10:02:28Z</time>
</trkpt>
<trkpt lat="52.547861467" lon="13.500378138">
<ele>94.591728</ele>
<time>2012-02-16T10:02:33Z</time>
</trkpt>
<trkpt lat="52.547841774" lon="13.500452203">
<ele>94.404976</ele>
<time>2012-02-16T10:02:38Z</time>
</trkpt>
<trkpt lat="52.547829990" lon="13.500527868">
<ele>94.175613</ele>
<time>2012-02-16T10:02:43Z</time>
</trkpt>
<trkpt lat="52.547824228" lon="13.500614784">
<ele>94.420776</ele>
<time>2012-02-16T10:02:48Z</time>
</trkpt>
<trkpt lat="52.547820764" lon="13.500696290">
<ele>94.307503</ele>
<time>2012-02-16T10:02:53Z</time>
</trkpt>
<trkpt lat="52.547810838" lon="13.500763430">
<ele>94.995071</ele>
<time>2012-02-16T10:02:58Z</time>
</trkpt>
<trkpt lat="52.547812398" lon="13.500839406">
<ele>95.150658</ele>
<time>2012-02-16T10:03:03Z</time>
</trkpt>
<trkpt lat="52.547818804" lon="13.500928467">
<ele>94.566414</ele>
<time>2012-02-16T10:03:08Z</time>
</trkpt>
<trkpt lat="52.547816530" lon="13.500996873">
<ele>94.024040</ele>
<time>2012-02-16T10:03:13Z</time>
</trkpt>
<trkpt lat="52.547845919" lon="13.501044838">
<ele>93.814720</ele>
<time>2012-02-16T10:03:18Z</time>
</trkpt>
<trkpt lat="52.547861662" lon="13.501096519">
<ele>92.986435</ele>
<time>2012-02-16T10:03:23Z</time>
</trkpt>
<trkpt lat="52.547875784" lon="13.501103736">
<ele>87.343094</ele>
<time>2012-02-16T10:03:28Z</time>
</trkpt>
<trkpt lat="52.547872340" lon="13.501183724">
<ele>87.971657</ele>
<time>2012-02-16T10:03:33Z</time>
</trkpt>
<trkpt lat="52.547869342" lon="13.501270596">
<ele>88.611908</ele>
<time>2012-02-16T10:03:38Z</time>
</trkpt>
<trkpt lat="52.547862449" lon="13.501352892">
<ele>89.869339</ele>
<time>2012-02-16T10:03:43Z</time>
</trkpt>
<trkpt lat="52.547857278" lon="13.501429291">
<ele>90.122520</ele>
<time>2012-02-16T10:03:48Z</time>
</trkpt>
<trkpt lat="52.547860397" lon="13.501505281">
<ele>91.011490</ele>
<time>2012-02-16T10:03:53Z</time>
</trkpt>
<trkpt lat="52.547860075" lon="13.501579927">
<ele>90.944542</ele>
<time>2012-02-16T10:03:58Z</time>
</trkpt>
<trkpt lat="52.547853555" lon="13.501655485">
<ele>90.788986</ele>
<time>2012-02-16T10:04:03Z</time>
</trkpt>
<trkpt lat="52.547857820" lon="13.501727298">
<ele>90.602943</ele>
<time>2012-02-16T10:04:08Z</time>
</trkpt>
<trkpt lat="52.547857704" lon="13.501806488">
<ele>91.035820</ele>
<time>2012-02-16T10:04:13Z</time>
</trkpt>
<trkpt lat="52.547851130" lon="13.501872729">
<ele>90.869904</ele>
<time>2012-02-16T10:04:18Z</time>
</trkpt>
<trkpt lat="52.547890242" lon="13.501921326">
<ele>91.676537</ele>
<time>2012-02-16T10:04:23Z</time>
</trkpt>
<trkpt lat="52.547934652" lon="13.501927884">
<ele>91.380112</ele>
<time>2012-02-16T10:04:28Z</time>
</trkpt>
<trkpt lat="52.547971410" lon="13.501952384">
<ele>91.831596</ele>
<time>2012-02-16T10:04:33Z</time>
</trkpt>
<trkpt lat="52.548017684" lon="13.501985005">
<ele>92.241631</ele>
<time>2012-02-16T10:04:38Z</time>
</trkpt>
<trkpt lat="52.548053620" lon="13.502016750">
<ele>92.458397</ele>
<time>2012-02-16T10:04:43Z</time>
</trkpt>
<trkpt lat="52.548087032" lon="13.502065336">
<ele>92.729324</ele>
<time>2012-02-16T10:04:48Z</time>
</trkpt>
<trkpt lat="52.548108773" lon="13.502108194">
<ele>93.645645</ele>
<time>2012-02-16T10:04:53Z</time>
</trkpt>
<trkpt lat="52.548142801" lon="13.502130423">
<ele>94.100067</ele>
<time>2012-02-16T10:04:58Z</time>
</trkpt>
<trkpt lat="52.548177463" lon="13.502173195">
<ele>94.536491</ele>
<time>2012-02-16T10:05:03Z</time>
</trkpt>
<trkpt lat="52.548215752" lon="13.502215806">
<ele>94.921448</ele>
<time>2012-02-16T10:05:08Z</time>
</trkpt>
<trkpt lat="52.548251209" lon="13.502264492">
<ele>95.198769</ele>
<time>2012-02-16T10:05:13Z</time>
</trkpt>
<trkpt lat="52.548289553" lon="13.502316691">
<ele>95.444992</ele>
<time>2012-02-16T10:05:18Z</time>
</trkpt>
<trkpt lat="52.548324215" lon="13.502363088">
<ele>95.996300</ele>
<time>2012-02-16T10:05:23Z</time>
</trkpt>
<trkpt lat="52.548362811" lon="13.502415286">
<ele>96.185577</ele>
<time>2012-02-16T10:05:28Z</time>
</trkpt>
<trkpt lat="52.548403116" lon="13.502447514">
<ele>96.174713</ele>
<time>2012-02-16T10:05:33Z</time>
</trkpt>
<trkpt lat="52.548436751" lon="13.502493913">
<ele>95.922646</ele>
<time>2012-02-16T10:05:38Z</time>
</trkpt>
<trkpt lat="52.548470881" lon="13.502542324">
<ele>95.366859</ele>
<time>2012-02-16T10:05:43Z</time>
</trkpt>
<trkpt lat="52.548506197" lon="13.502613561">
<ele>95.566811</ele>
<time>2012-02-16T10:05:48Z</time>
</trkpt>
<trkpt lat="52.548543097" lon="13.502673270">
<ele>95.795547</ele>
<time>2012-02-16T10:05:53Z</time>
</trkpt>
<trkpt lat="52.548575070" lon="13.502724810">
<ele>95.814148</ele>
<time>2012-02-16T10:05:58Z</time>
</trkpt>
<trkpt lat="52.548619651" lon="13.502773724">
<ele>96.361015</ele>
<time>2012-02-16T10:06:03Z</time>
</trkpt>
<trkpt lat="52.548653690" lon="13.502826112">
<ele>96.238358</ele>
<time>2012-02-16T10:06:08Z</time>
</trkpt>
<trkpt lat="52.548674132" lon="13.502889990">
<ele>95.374588</ele>
<time>2012-02-16T10:06:13Z</time>
</trkpt>
<trkpt lat="52.548671618" lon="13.502948983">
<ele>93.955299</ele>
<time>2012-02-16T10:06:18Z</time>
</trkpt>
<trkpt lat="52.548661549" lon="13.503009885">
<ele>92.708687</ele>
<time>2012-02-16T10:06:23Z</time>
</trkpt>
<trkpt lat="52.548663176" lon="13.503068926">
<ele>92.379036</ele>
<time>2012-02-16T10:06:28Z</time>
</trkpt>
<trkpt lat="52.548655487" lon="13.503123595">
<ele>92.009071</ele>
<time>2012-02-16T10:06:33Z</time>
</trkpt>
<trkpt lat="52.548650019" lon="13.503187919">
<ele>91.747910</ele>
<time>2012-02-16T10:06:38Z</time>
</trkpt>
<trkpt lat="52.548640892" lon="13.503203409">
<ele>91.794205</ele>
<time>2012-02-16T10:06:43Z</time>
</trkpt>
<trkpt lat="52.548640372" lon="13.503201329">
<ele>91.986794</ele>
<time>2012-02-16T10:06:48Z</time>
</trkpt>
<trkpt lat="52.548641443" lon="13.503199028">
<ele>91.885506</ele>
<time>2012-02-16T10:06:53Z</time>
</trkpt>
<trkpt lat="52.548646619" lon="13.503200946">
<ele>91.037605</ele>
<time>2012-02-16T10:06:58Z</time>
</trkpt>
<trkpt lat="52.548654716" lon="13.503205057">
<ele>90.973251</ele>
<time>2012-02-16T10:07:03Z</time>
</trkpt>
<trkpt lat="52.548663705" lon="13.503206533">
<ele>91.293793</ele>
<time>2012-02-16T10:07:08Z</time>
</trkpt>
<trkpt lat="52.548678924" lon="13.503217983">
<ele>90.646111</ele>
<time>2012-02-16T10:07:13Z</time>
</trkpt>
<trkpt lat="52.548675275" lon="13.503280010">
<ele>90.141335</ele>
<time>2012-02-16T10:07:18Z</time>
</trkpt>
<trkpt lat="52.548665050" lon="13.503366720">
<ele>89.483971</ele>
<time>2012-02-16T10:07:23Z</time>
</trkpt>
<trkpt lat="52.548661092" lon="13.503407471">
<ele>88.002243</ele>
<time>2012-02-16T10:07:28Z</time>
</trkpt>
<trkpt lat="52.548659445" lon="13.503400330">
<ele>86.502525</ele>
<time>2012-02-16T10:07:33Z</time>
</trkpt>
<trkpt lat="52.548650466" lon="13.503441795">
<ele>86.915947</ele>
<time>2012-02-16T10:07:38Z</time>
</trkpt>
<trkpt lat="52.548628599" lon="13.503512293">
<ele>86.899742</ele>
<time>2012-02-16T10:07:43Z</time>
</trkpt>
<trkpt lat="52.548625491" lon="13.503559019">
<ele>87.571083</ele>
<time>2012-02-16T10:07:48Z</time>
</trkpt>
<trkpt lat="52.548667845" lon="13.503500324">
<ele>85.283386</ele>
<time>2012-02-16T10:07:53Z</time>
</trkpt>
<trkpt lat="52.548692439" lon="13.503558017">
<ele>84.076149</ele>
<time>2012-02-16T10:07:58Z</time>
</trkpt>
<trkpt lat="52.548721954" lon="13.503683296">
<ele>84.244484</ele>
<time>2012-02-16T10:08:03Z</time>
</trkpt>
<trkpt lat="52.548752242" lon="13.503769060">
<ele>83.721191</ele>
<time>2012-02-16T10:08:08Z</time>
</trkpt>
<trkpt lat="52.548751366" lon="13.503865940">
<ele>83.591423</ele>
<time>2012-02-16T10:08:13Z</time>
</trkpt>
<trkpt lat="52.548743154" lon="13.503961707">
<ele>83.412430</ele>
<time>2012-02-16T10:08:18Z</time>
</trkpt>
<trkpt lat="52.548750277" lon="13.504037644">
<ele>83.730988</ele>
<time>2012-02-16T10:08:23Z</time>
</trkpt>
<trkpt lat="52.548744221" lon="13.504105645">
<ele>83.154312</ele>
<time>2012-02-16T10:08:28Z</time>
</trkpt>
<trkpt lat="52.548746949" lon="13.504215128">
<ele>84.548691</ele>
<time>2012-02-16T10:08:33Z</time>
</trkpt>
<trkpt lat="52.548764505" lon="13.504261974">
<ele>87.018105</ele>
<time>2012-02-16T10:08:38Z</time>
</trkpt>
<trkpt lat="52.548764542" lon="13.504277519">
<ele>89.045418</ele>
<time>2012-02-16T10:08:43Z</time>
</trkpt>
<trkpt lat="52.548764135" lon="13.504277374">
<ele>88.901657</ele>
<time>2012-02-16T10:08:48Z</time>
</trkpt>
<trkpt lat="52.548765033" lon="13.504276082">
<ele>88.918678</ele>
<time>2012-02-16T10:08:53Z</time>
</trkpt>
<trkpt lat="52.548765841" lon="13.504276495">
<ele>88.944221</ele>
<time>2012-02-16T10:08:58Z</time>
</trkpt>
<trkpt lat="52.548829372" lon="13.504311475">
<ele>89.613670</ele>
<time>2012-02-16T10:09:03Z</time>
</trkpt>
<trkpt lat="52.548880769" lon="13.504345579">
<ele>90.655846</ele>
<time>2012-02-16T10:09:08Z</time>
</trkpt>
<trkpt lat="52.548920036" lon="13.504379982">
<ele>91.882774</ele>
<time>2012-02-16T10:09:13Z</time>
</trkpt>
<trkpt lat="52.548920315" lon="13.504424064">
<ele>93.403595</ele>
<time>2012-02-16T10:09:18Z</time>
</trkpt>
<trkpt lat="52.548912877" lon="13.504465834">
<ele>94.108803</ele>
<time>2012-02-16T10:09:23Z</time>
</trkpt>
<trkpt lat="52.548911558" lon="13.504452334">
<ele>93.920769</ele>
<time>2012-02-16T10:09:28Z</time>
</trkpt>
<trkpt lat="52.548911757" lon="13.504451390">
<ele>93.813789</ele>
<time>2012-02-16T10:09:33Z</time>
</trkpt>
<trkpt lat="52.548913630" lon="13.504456875">
<ele>93.828682</ele>
<time>2012-02-16T10:09:38Z</time>
</trkpt>
<trkpt lat="52.548906823" lon="13.504466000">
<ele>94.113266</ele>
<time>2012-02-16T10:09:43Z</time>
</trkpt>
<trkpt lat="52.548901369" lon="13.504469905">
<ele>94.463638</ele>
<time>2012-02-16T10:09:48Z</time>
</trkpt>
<trkpt lat="52.548893746" lon="13.504471696">
<ele>94.135925</ele>
<time>2012-02-16T10:09:53Z</time>
</trkpt>
<trkpt lat="52.548893369" lon="13.504474321">
<ele>94.415855</ele>
<time>2012-02-16T10:09:58Z</time>
</trkpt>
<trkpt lat="52.548893266" lon="13.504475851">
<ele>94.465942</ele>
<time>2012-02-16T10:10:03Z</time>
</trkpt>
<trkpt lat="52.548893230" lon="13.504476184">
<ele>94.461288</ele>
<time>2012-02-16T10:10:08Z</time>
</trkpt>
<trkpt lat="52.548893311" lon="13.504476280">
<ele>94.460930</ele>
<time>2012-02-16T10:10:13Z</time>
</trkpt>
<trkpt lat="52.548893252" lon="13.504476414">
<ele>94.466660</ele>
<time>2012-02-16T10:10:18Z</time>
</trkpt>
<trkpt lat="52.548892937" lon="13.504476737">
<ele>94.496239</ele>
<time>2012-02-16T10:10:23Z</time>
</trkpt>
<trkpt lat="52.548892850" lon="13.504477233">
<ele>94.521591</ele>
<time>2012-02-16T10:10:28Z</time>
</trkpt>
<trkpt lat="52.548892620" lon="13.504477956">
<ele>94.538963</ele>
<time>2012-02-16T10:10:33Z</time>
</trkpt>
<trkpt lat="52.548892605" lon="13.504478231">
<ele>94.535927</ele>
<time>2012-02-16T10:10:38Z</time>
</trkpt>
<trkpt lat="52.548892557" lon="13.504478197">
<ele>94.541946</ele>
<time>2012-02-16T10:10:43Z</time>
</trkpt>
<trkpt lat="52.548892500" lon="13.504478211">
<ele>94.547264</ele>
<time>2012-02-16T10:10:48Z</time>
</trkpt>
<trkpt lat="52.548892478" lon="13.504478286">
<ele>94.550453</ele>
<time>2012-02-16T10:10:53Z</time>
</trkpt>
<trkpt lat="52.548892443" lon="13.504478327">
<ele>94.546288</ele>
<time>2012-02-16T10:10:58Z</time>
</trkpt>
<trkpt lat="52.548892518" lon="13.504478397">
<ele>94.541565</ele>
<time>2012-02-16T10:11:03Z</time>
</trkpt>
<trkpt lat="52.548893081" lon="13.504479011">
<ele>94.543739</ele>
<time>2012-02-16T10:11:08Z</time>
</trkpt>
<trkpt lat="52.548893337" lon="13.504477975">
<ele>94.470688</ele>
<time>2012-02-16T10:11:13Z</time>
</trkpt>
<trkpt lat="52.548894762" lon="13.504475942">
<ele>94.372276</ele>
<time>2012-02-16T10:11:18Z</time>
</trkpt>
<trkpt lat="52.548894600" lon="13.504475908">
<ele>94.365829</ele>
<time>2012-02-16T10:11:23Z</time>
</trkpt>
<trkpt lat="52.548895661" lon="13.504475681">
<ele>94.382736</ele>
<time>2012-02-16T10:11:28Z</time>
</trkpt>
<trkpt lat="52.548897017" lon="13.504473846">
<ele>94.235519</ele>
<time>2012-02-16T10:11:33Z</time>
</trkpt>
<trkpt lat="52.548908021" lon="13.504421771">
<ele>94.176353</ele>
<time>2012-02-16T10:11:38Z</time>
</trkpt>
<trkpt lat="52.548908101" lon="13.504370799">
<ele>94.295441</ele>
<time>2012-02-16T10:11:43Z</time>
</trkpt>
<trkpt lat="52.548903557" lon="13.504366300">
<ele>94.196289</ele>
<time>2012-02-16T10:11:48Z</time>
</trkpt>
<trkpt lat="52.548903517" lon="13.504365848">
<ele>94.180748</ele>
<time>2012-02-16T10:11:53Z</time>
</trkpt>
<trkpt lat="52.548904032" lon="13.504361282">
<ele>94.047783</ele>
<time>2012-02-16T10:11:58Z</time>
</trkpt>
<trkpt lat="52.548908014" lon="13.504359452">
<ele>93.782227</ele>
<time>2012-02-16T10:12:03Z</time>
</trkpt>
<trkpt lat="52.548903682" lon="13.504344843">
<ele>93.918839</ele>
<time>2012-02-16T10:12:08Z</time>
</trkpt>
<trkpt lat="52.548887261" lon="13.504337025">
<ele>94.307907</ele>
<time>2012-02-16T10:12:13Z</time>
</trkpt>
<trkpt lat="52.548832777" lon="13.504317107">
<ele>94.608002</ele>
<time>2012-02-16T10:12:18Z</time>
</trkpt>
<trkpt lat="52.548819073" lon="13.504298021">
<ele>94.874947</ele>
<time>2012-02-16T10:12:23Z</time>
</trkpt>
<trkpt lat="52.548819203" lon="13.504297887">
<ele>94.851173</ele>
<time>2012-02-16T10:12:28Z</time>
</trkpt>
<trkpt lat="52.548787259" lon="13.504289782">
<ele>94.655823</ele>
<time>2012-02-16T10:12:33Z</time>
</trkpt>
<trkpt lat="52.548738684" lon="13.504264361">
<ele>94.519012</ele>
<time>2012-02-16T10:12:38Z</time>
</trkpt>
<trkpt lat="52.548725306" lon="13.504183202">
<ele>94.796265</ele>
<time>2012-02-16T10:12:43Z</time>
</trkpt>
<trkpt lat="52.548721252" lon="13.504105161">
<ele>93.625847</ele>
<time>2012-02-16T10:12:48Z</time>
</trkpt>
<trkpt lat="52.548721566" lon="13.504024112">
<ele>92.599609</ele>
<time>2012-02-16T10:12:53Z</time>
</trkpt>
<trkpt lat="52.548717360" lon="13.503935267">
<ele>90.566498</ele>
<time>2012-02-16T10:12:58Z</time>
</trkpt>
<trkpt lat="52.548708069" lon="13.503846116">
<ele>90.341286</ele>
<time>2012-02-16T10:13:03Z</time>
</trkpt>
<trkpt lat="52.548687491" lon="13.503796580">
<ele>89.160698</ele>
<time>2012-02-16T10:13:08Z</time>
</trkpt>
<trkpt lat="52.548664305" lon="13.503773706">
<ele>88.214455</ele>
<time>2012-02-16T10:13:13Z</time>
</trkpt>
<trkpt lat="52.548641488" lon="13.503661636">
<ele>87.672340</ele>
<time>2012-02-16T10:13:18Z</time>
</trkpt>
<trkpt lat="52.548626011" lon="13.503558064">
<ele>87.445534</ele>
<time>2012-02-16T10:13:23Z</time>
</trkpt>
<trkpt lat="52.548628065" lon="13.503453113">
<ele>86.960419</ele>
<time>2012-02-16T10:13:28Z</time>
</trkpt>
<trkpt lat="52.548660201" lon="13.503363300">
<ele>88.287788</ele>
<time>2012-02-16T10:13:33Z</time>
</trkpt>
<trkpt lat="52.548686011" lon="13.503295514">
<ele>90.139427</ele>
<time>2012-02-16T10:13:38Z</time>
</trkpt>
<trkpt lat="52.548675175" lon="13.503227339">
<ele>91.132904</ele>
<time>2012-02-16T10:13:43Z</time>
</trkpt>
<trkpt lat="52.548675610" lon="13.503207739">
<ele>92.281845</ele>
<time>2012-02-16T10:13:48Z</time>
</trkpt>
<trkpt lat="52.548679130" lon="13.503209362">
<ele>92.918968</ele>
<time>2012-02-16T10:13:53Z</time>
</trkpt>
<trkpt lat="52.548679006" lon="13.503207044">
<ele>93.212608</ele>
<time>2012-02-16T10:13:58Z</time>
</trkpt>
<trkpt lat="52.548678852" lon="13.503206761">
<ele>93.241348</ele>
<time>2012-02-16T10:14:03Z</time>
</trkpt>
<trkpt lat="52.548678920" lon="13.503206138">
<ele>93.275215</ele>
<time>2012-02-16T10:14:08Z</time>
</trkpt>
<trkpt lat="52.548678694" lon="13.503205975">
<ele>93.251732</ele>
<time>2012-02-16T10:14:13Z</time>
</trkpt>
<trkpt lat="52.548680509" lon="13.503207058">
<ele>93.238960</ele>
<time>2012-02-16T10:14:18Z</time>
</trkpt>
<trkpt lat="52.548680500" lon="13.503206912">
<ele>93.236481</ele>
<time>2012-02-16T10:14:23Z</time>
</trkpt>
<trkpt lat="52.548680441" lon="13.503206741">
<ele>93.228683</ele>
<time>2012-02-16T10:14:28Z</time>
</trkpt>
<trkpt lat="52.548680426" lon="13.503206856">
<ele>93.237862</ele>
<time>2012-02-16T10:14:33Z</time>
</trkpt>
<trkpt lat="52.548680293" lon="13.503206885">
<ele>93.252457</ele>
<time>2012-02-16T10:14:38Z</time>
</trkpt>
<trkpt lat="52.548680161" lon="13.503206961">
<ele>93.252579</ele>
<time>2012-02-16T10:14:43Z</time>
</trkpt>
<trkpt lat="52.548680188" lon="13.503207103">
<ele>93.245811</ele>
<time>2012-02-16T10:14:48Z</time>
</trkpt>
<trkpt lat="52.548680491" lon="13.503207151">
<ele>93.254578</ele>
<time>2012-02-16T10:14:53Z</time>
</trkpt>
<trkpt lat="52.548681389" lon="13.503231872">
<ele>93.725838</ele>
<time>2012-02-16T10:14:58Z</time>
</trkpt>
<trkpt lat="52.548672654" lon="13.503230939">
<ele>93.434921</ele>
<time>2012-02-16T10:15:03Z</time>
</trkpt>
<trkpt lat="52.548669429" lon="13.503230335">
<ele>93.508629</ele>
<time>2012-02-16T10:15:08Z</time>
</trkpt>
<trkpt lat="52.548669278" lon="13.503230364">
<ele>93.503746</ele>
<time>2012-02-16T10:15:13Z</time>
</trkpt>
<trkpt lat="52.548668353" lon="13.503219578">
<ele>93.148544</ele>
<time>2012-02-16T10:15:18Z</time>
</trkpt>
<trkpt lat="52.548670506" lon="13.503225433">
<ele>93.335709</ele>
<time>2012-02-16T10:15:23Z</time>
</trkpt>
<trkpt lat="52.548667840" lon="13.503301357">
<ele>93.574036</ele>
<time>2012-02-16T10:15:28Z</time>
</trkpt>
<trkpt lat="52.548661428" lon="13.503348207">
<ele>92.785423</ele>
<time>2012-02-16T10:15:33Z</time>
</trkpt>
<trkpt lat="52.548661397" lon="13.503391118">
<ele>91.064880</ele>
<time>2012-02-16T10:15:38Z</time>
</trkpt>
<trkpt lat="52.548638848" lon="13.503508212">
<ele>92.500710</ele>
<time>2012-02-16T10:15:43Z</time>
</trkpt>
<trkpt lat="52.548639059" lon="13.503585465">
<ele>94.695381</ele>
<time>2012-02-16T10:15:48Z</time>
</trkpt>
<trkpt lat="52.548618572" lon="13.503639244">
<ele>96.729889</ele>
<time>2012-02-16T10:15:53Z</time>
</trkpt>
<trkpt lat="52.548639460" lon="13.503697792">
<ele>99.832329</ele>
<time>2012-02-16T10:15:58Z</time>
</trkpt>
<trkpt lat="52.548640012" lon="13.503789388">
<ele>104.300163</ele>
<time>2012-02-16T10:16:03Z</time>
</trkpt>
<trkpt lat="52.548636091" lon="13.503875942">
<ele>106.070992</ele>
<time>2012-02-16T10:16:08Z</time>
</trkpt>
<trkpt lat="52.548640891" lon="13.503946390">
<ele>108.030991</ele>
<time>2012-02-16T10:16:13Z</time>
</trkpt>
<trkpt lat="52.548626325" lon="13.504009777">
<ele>108.745026</ele>
<time>2012-02-16T10:16:18Z</time>
</trkpt>
<trkpt lat="52.548636030" lon="13.504045500">
<ele>109.109467</ele>
<time>2012-02-16T10:16:23Z</time>
</trkpt>
<trkpt lat="52.548613472" lon="13.504174161">
<ele>108.383591</ele>
<time>2012-02-16T10:16:28Z</time>
</trkpt>
<trkpt lat="52.548598455" lon="13.504267015">
<ele>107.870522</ele>
<time>2012-02-16T10:16:33Z</time>
</trkpt>
<trkpt lat="52.548590186" lon="13.504365400">
<ele>107.833717</ele>
<time>2012-02-16T10:16:38Z</time>
</trkpt>
<trkpt lat="52.548574823" lon="13.504437762">
<ele>107.564659</ele>
<time>2012-02-16T10:16:43Z</time>
</trkpt>
<trkpt lat="52.548570882" lon="13.504533144">
<ele>107.486176</ele>
<time>2012-02-16T10:16:48Z</time>
</trkpt>
<trkpt lat="52.548607034" lon="13.504574356">
<ele>108.068054</ele>
<time>2012-02-16T10:16:53Z</time>
</trkpt>
<trkpt lat="52.548680685" lon="13.504575471">
<ele>109.153137</ele>
<time>2012-02-16T10:16:58Z</time>
</trkpt>
<trkpt lat="52.548683375" lon="13.504601809">
<ele>111.275314</ele>
<time>2012-02-16T10:17:03Z</time>
</trkpt>
<trkpt lat="52.548720289" lon="13.504618186">
<ele>112.538078</ele>
<time>2012-02-16T10:17:08Z</time>
</trkpt>
<trkpt lat="52.548724731" lon="13.504596668">
<ele>113.418411</ele>
<time>2012-02-16T10:17:13Z</time>
</trkpt>
<trkpt lat="52.548695369" lon="13.504625915">
<ele>115.147469</ele>
<time>2012-02-16T10:17:18Z</time>
</trkpt>
<trkpt lat="52.548666780" lon="13.504614910">
<ele>116.174850</ele>
<time>2012-02-16T10:17:23Z</time>
</trkpt>
<trkpt lat="52.548667858" lon="13.504620186">
<ele>116.973228</ele>
<time>2012-02-16T10:17:28Z</time>
</trkpt>
<trkpt lat="52.548664988" lon="13.504631322">
<ele>117.322418</ele>
<time>2012-02-16T10:17:33Z</time>
</trkpt>
<trkpt lat="52.548683746" lon="13.504632400">
<ele>117.274933</ele>
<time>2012-02-16T10:17:38Z</time>
</trkpt>
<trkpt lat="52.548687235" lon="13.504639963">
<ele>117.416321</ele>
<time>2012-02-16T10:17:43Z</time>
</trkpt>
<trkpt lat="52.548691381" lon="13.504638894">
<ele>117.561836</ele>
<time>2012-02-16T10:17:48Z</time>
</trkpt>
<trkpt lat="52.548694493" lon="13.504643570">
<ele>117.664970</ele>
<time>2012-02-16T10:17:53Z</time>
</trkpt>
<trkpt lat="52.548704953" lon="13.504656000">
<ele>116.274796</ele>
<time>2012-02-16T10:17:58Z</time>
</trkpt>
<trkpt lat="52.548706658" lon="13.504655421">
<ele>115.788132</ele>
<time>2012-02-16T10:18:03Z</time>
</trkpt>
<trkpt lat="52.548706822" lon="13.504651281">
<ele>115.816063</ele>
<time>2012-02-16T10:18:08Z</time>
</trkpt>
<trkpt lat="52.548707842" lon="13.504651744">
<ele>115.867393</ele>
<time>2012-02-16T10:18:13Z</time>
</trkpt>
<trkpt lat="52.548707612" lon="13.504651572">
<ele>115.850372</ele>
<time>2012-02-16T10:18:18Z</time>
</trkpt>
<trkpt lat="52.548708037" lon="13.504651473">
<ele>115.834312</ele>
<time>2012-02-16T10:18:23Z</time>
</trkpt>
<trkpt lat="52.548708298" lon="13.504651331">
<ele>115.800705</ele>
<time>2012-02-16T10:18:28Z</time>
</trkpt>
<trkpt lat="52.548708575" lon="13.504650520">
<ele>115.728325</ele>
<time>2012-02-16T10:18:33Z</time>
</trkpt>
<trkpt lat="52.548705925" lon="13.504643205">
<ele>116.017555</ele>
<time>2012-02-16T10:18:38Z</time>
</trkpt>
<trkpt lat="52.548712282" lon="13.504664027">
<ele>115.876717</ele>
<time>2012-02-16T10:18:43Z</time>
</trkpt>
<trkpt lat="52.548707437" lon="13.504682940">
<ele>115.660759</ele>
<time>2012-02-16T10:18:48Z</time>
</trkpt>
<trkpt lat="52.548709019" lon="13.504661091">
<ele>114.762886</ele>
<time>2012-02-16T10:18:53Z</time>
</trkpt>
<trkpt lat="52.548702369" lon="13.504635836">
<ele>114.458786</ele>
<time>2012-02-16T10:18:58Z</time>
</trkpt>
<trkpt lat="52.548703162" lon="13.504626164">
<ele>114.286140</ele>
<time>2012-02-16T10:19:03Z</time>
</trkpt>
<trkpt lat="52.548701493" lon="13.504624444">
<ele>114.169212</ele>
<time>2012-02-16T10:19:08Z</time>
</trkpt>
<trkpt lat="52.548704343" lon="13.504624184">
<ele>114.097939</ele>
<time>2012-02-16T10:19:13Z</time>
</trkpt>
<trkpt lat="52.548683415" lon="13.504619811">
<ele>114.331657</ele>
<time>2012-02-16T10:19:18Z</time>
</trkpt>
<trkpt lat="52.548672154" lon="13.504614815">
<ele>113.286179</ele>
<time>2012-02-16T10:19:23Z</time>
</trkpt>
<trkpt lat="52.548667806" lon="13.504615255">
<ele>113.437180</ele>
<time>2012-02-16T10:19:28Z</time>
</trkpt>
<trkpt lat="52.548668972" lon="13.504613086">
<ele>113.646103</ele>
<time>2012-02-16T10:19:33Z</time>
</trkpt>
<trkpt lat="52.548669646" lon="13.504613322">
<ele>113.665680</ele>
<time>2012-02-16T10:19:38Z</time>
</trkpt>
<trkpt lat="52.548669214" lon="13.504611185">
<ele>113.488983</ele>
<time>2012-02-16T10:19:43Z</time>
</trkpt>
<trkpt lat="52.548670512" lon="13.504612540">
<ele>113.398773</ele>
<time>2012-02-16T10:19:48Z</time>
</trkpt>
<trkpt lat="52.548671689" lon="13.504613264">
<ele>113.469307</ele>
<time>2012-02-16T10:19:53Z</time>
</trkpt>
<trkpt lat="52.548671708" lon="13.504613328">
<ele>113.447990</ele>
<time>2012-02-16T10:19:58Z</time>
</trkpt>
<trkpt lat="52.548674525" lon="13.504630517">
<ele>113.206589</ele>
<time>2012-02-16T10:20:03Z</time>
</trkpt>
<trkpt lat="52.548633675" lon="13.504683095">
<ele>110.428780</ele>
<time>2012-02-16T10:20:08Z</time>
</trkpt>
<trkpt lat="52.548578053" lon="13.504667897">
<ele>106.224098</ele>
<time>2012-02-16T10:20:13Z</time>
</trkpt>
<trkpt lat="52.548527131" lon="13.504673640">
<ele>103.929558</ele>
<time>2012-02-16T10:20:18Z</time>
</trkpt>
<trkpt lat="52.548513232" lon="13.504703500">
<ele>104.255501</ele>
<time>2012-02-16T10:20:23Z</time>
</trkpt>
<trkpt lat="52.548478651" lon="13.504714633">
<ele>103.634804</ele>
<time>2012-02-16T10:20:28Z</time>
</trkpt>
<trkpt lat="52.548474139" lon="13.504720190">
<ele>104.293396</ele>
<time>2012-02-16T10:20:33Z</time>
</trkpt>
<trkpt lat="52.548472985" lon="13.504725963">
<ele>104.945496</ele>
<time>2012-02-16T10:20:38Z</time>
</trkpt>
<trkpt lat="52.548473607" lon="13.504732914">
<ele>105.595039</ele>
<time>2012-02-16T10:20:43Z</time>
</trkpt>
<trkpt lat="52.548510768" lon="13.504771810">
<ele>106.167633</ele>
<time>2012-02-16T10:20:48Z</time>
</trkpt>
<trkpt lat="52.548547725" lon="13.504825106">
<ele>106.765373</ele>
<time>2012-02-16T10:20:53Z</time>
</trkpt>
<trkpt lat="52.548571718" lon="13.504903206">
<ele>107.417168</ele>
<time>2012-02-16T10:20:58Z</time>
</trkpt>
<trkpt lat="52.548588609" lon="13.504967008">
<ele>106.794342</ele>
<time>2012-02-16T10:21:03Z</time>
</trkpt>
<trkpt lat="52.548605144" lon="13.505045287">
<ele>106.631538</ele>
<time>2012-02-16T10:21:08Z</time>
</trkpt>
<trkpt lat="52.548707538" lon="13.505216404">
<ele>106.312622</ele>
<time>2012-02-16T10:21:13Z</time>
</trkpt>
<trkpt lat="52.548720966" lon="13.505374036">
<ele>106.110260</ele>
<time>2012-02-16T10:21:18Z</time>
</trkpt>
<trkpt lat="52.548728722" lon="13.505516779">
<ele>104.777588</ele>
<time>2012-02-16T10:21:23Z</time>
</trkpt>
<trkpt lat="52.548730760" lon="13.505600880">
<ele>104.153458</ele>
<time>2012-02-16T10:21:28Z</time>
</trkpt>
<trkpt lat="52.548696557" lon="13.505706187">
<ele>103.912651</ele>
<time>2012-02-16T10:21:33Z</time>
</trkpt>
<trkpt lat="52.548681891" lon="13.505794085">
<ele>103.763115</ele>
<time>2012-02-16T10:21:38Z</time>
</trkpt>
<trkpt lat="52.548583518" lon="13.505949352">
<ele>103.651649</ele>
<time>2012-02-16T10:21:43Z</time>
</trkpt>
<trkpt lat="52.548546728" lon="13.506206860">
<ele>103.475731</ele>
<time>2012-02-16T10:21:48Z</time>
</trkpt>
<trkpt lat="52.548440051" lon="13.506230251">
<ele>103.979836</ele>
<time>2012-02-16T10:21:53Z</time>
</trkpt>
<trkpt lat="52.548243742" lon="13.506183415">
<ele>102.557938</ele>
<time>2012-02-16T10:21:58Z</time>
</trkpt>
<trkpt lat="52.548159855" lon="13.506163836">
<ele>102.423363</ele>
<time>2012-02-16T10:22:03Z</time>
</trkpt>
<trkpt lat="52.548107408" lon="13.506187847">
<ele>101.127769</ele>
<time>2012-02-16T10:22:08Z</time>
</trkpt>
<trkpt lat="52.548053867" lon="13.506167235">
<ele>97.550987</ele>
<time>2012-02-16T10:22:13Z</time>
</trkpt>
<trkpt lat="52.548010540" lon="13.506208416">
<ele>96.058357</ele>
<time>2012-02-16T10:22:18Z</time>
</trkpt>
<trkpt lat="52.547969223" lon="13.506204997">
<ele>94.514153</ele>
<time>2012-02-16T10:22:23Z</time>
</trkpt>
<trkpt lat="52.547924941" lon="13.506166496">
<ele>94.318481</ele>
<time>2012-02-16T10:22:28Z</time>
</trkpt>
<trkpt lat="52.547870857" lon="13.506131874">
<ele>93.504913</ele>
<time>2012-02-16T10:22:33Z</time>
</trkpt>
<trkpt lat="52.547820269" lon="13.506114108">
<ele>94.060791</ele>
<time>2012-02-16T10:22:38Z</time>
</trkpt>
<trkpt lat="52.547803225" lon="13.506105043">
<ele>94.566277</ele>
<time>2012-02-16T10:22:43Z</time>
</trkpt>
<trkpt lat="52.547807036" lon="13.506084707">
<ele>95.378853</ele>
<time>2012-02-16T10:22:48Z</time>
</trkpt>
<trkpt lat="52.547805638" lon="13.506073017">
<ele>95.884621</ele>
<time>2012-02-16T10:22:53Z</time>
</trkpt>
<trkpt lat="52.547791050" lon="13.506044922">
<ele>96.300163</ele>
<time>2012-02-16T10:22:58Z</time>
</trkpt>
<trkpt lat="52.547772806" lon="13.506008886">
<ele>96.678902</ele>
<time>2012-02-16T10:23:03Z</time>
</trkpt>
<trkpt lat="52.547769694" lon="13.505973023">
<ele>97.147263</ele>
<time>2012-02-16T10:23:08Z</time>
</trkpt>
<trkpt lat="52.547757675" lon="13.505951802">
<ele>97.357887</ele>
<time>2012-02-16T10:23:13Z</time>
</trkpt>
<trkpt lat="52.547736772" lon="13.505971687">
<ele>97.169083</ele>
<time>2012-02-16T10:23:18Z</time>
</trkpt>
<trkpt lat="52.547747886" lon="13.505984109">
<ele>97.156418</ele>
<time>2012-02-16T10:23:23Z</time>
</trkpt>
<trkpt lat="52.547754111" lon="13.505994023">
<ele>97.147942</ele>
<time>2012-02-16T10:23:28Z</time>
</trkpt>
<trkpt lat="52.547796104" lon="13.506092578">
<ele>97.087814</ele>
<time>2012-02-16T10:23:33Z</time>
</trkpt>
<trkpt lat="52.547816253" lon="13.506192590">
<ele>97.036423</ele>
<time>2012-02-16T10:23:38Z</time>
</trkpt>
<trkpt lat="52.547837003" lon="13.506207497">
<ele>97.014999</ele>
<time>2012-02-16T10:23:43Z</time>
</trkpt>
<trkpt lat="52.547878432" lon="13.506152167">
<ele>97.013054</ele>
<time>2012-02-16T10:23:48Z</time>
</trkpt>
<trkpt lat="52.547919778" lon="13.506107507">
<ele>97.002243</ele>
<time>2012-02-16T10:23:53Z</time>
</trkpt>
<trkpt lat="52.547961100" lon="13.506131117">
<ele>96.980019</ele>
<time>2012-02-16T10:23:58Z</time>
</trkpt>
<trkpt lat="52.547929493" lon="13.506209724">
<ele>96.962433</ele>
<time>2012-02-16T10:24:03Z</time>
</trkpt>
<trkpt lat="52.547884949" lon="13.506241315">
<ele>96.944519</ele>
<time>2012-02-16T10:24:08Z</time>
</trkpt>
<trkpt lat="52.547885459" lon="13.506214630">
<ele>96.916100</ele>
<time>2012-02-16T10:24:13Z</time>
</trkpt>
<trkpt lat="52.547894213" lon="13.506204589">
<ele>96.894424</ele>
<time>2012-02-16T10:24:18Z</time>
</trkpt>
<trkpt lat="52.547885981" lon="13.506195503">
<ele>96.869263</ele>
<time>2012-02-16T10:24:23Z</time>
</trkpt>
<trkpt lat="52.547887454" lon="13.506206433">
<ele>96.861221</ele>
<time>2012-02-16T10:24:28Z</time>
</trkpt>
<trkpt lat="52.547883364" lon="13.506210448">
<ele>96.853218</ele>
<time>2012-02-16T10:24:33Z</time>
</trkpt>
<trkpt lat="52.547883404" lon="13.506209001">
<ele>96.844940</ele>
<time>2012-02-16T10:24:38Z</time>
</trkpt>
<trkpt lat="52.547888914" lon="13.506207248">
<ele>96.836655</ele>
<time>2012-02-16T10:24:43Z</time>
</trkpt>
<trkpt lat="52.547898261" lon="13.506208852">
<ele>96.828323</ele>
<time>2012-02-16T10:24:48Z</time>
</trkpt>
<trkpt lat="52.547908577" lon="13.506214679">
<ele>96.819595</ele>
<time>2012-02-16T10:24:53Z</time>
</trkpt>
<trkpt lat="52.547920548" lon="13.506219682">
<ele>96.810837</ele>
<time>2012-02-16T10:24:58Z</time>
</trkpt>
<trkpt lat="52.547928770" lon="13.506220803">
<ele>96.802086</ele>
<time>2012-02-16T10:25:03Z</time>
</trkpt>
<trkpt lat="52.547933142" lon="13.506224202">
<ele>96.792984</ele>
<time>2012-02-16T10:25:08Z</time>
</trkpt>
<trkpt lat="52.547938873" lon="13.506237189">
<ele>96.783546</ele>
<time>2012-02-16T10:25:13Z</time>
</trkpt>
</trkseg>
</trk>
</gpx>